Wetterdaten: Donnerstag, 02.04.2026
Datum Zeit Temp. Aussen Temp. o. S. Temp +5cm Feuchte Auss Luftdruck Regen Sonnenschein Solar Windböen Empfang
02.04.2026 00:00 6,5 °C 5,6 °C 2,2 °C 73 % 1020,7 hPa 0,0 l/m² 0 min 0 W/m² 6,4 km/h (2 Bft) 100,00 %
02.04.2026 00:02 6,5 °C 5,6 °C 2,2 °C 73 % 1020,8 hPa 0,0 l/m² 0 min 0 W/m² 6,4 km/h (2 Bft) 100,00 %
02.04.2026 00:04 6,4 °C 5,6 °C 2,2 °C 73 % 1020,7 hPa 0,0 l/m² 0 min 0 W/m² 6,4 km/h (2 Bft) 100,00 %
02.04.2026 00:08 6,4 °C 5,6 °C 2,2 °C 73 % 1020,7 hPa 0,0 l/m² 0 min 0 W/m² 3,2 km/h (1 Bft) 100,00 %
02.04.2026 00:10 6,4 °C 5,6 °C 2,2 °C 73 % 1020,7 hPa 0,0 l/m² 0 min 0 W/m² 6,4 km/h (2 Bft) 98,00 %
02.04.2026 00:12 6,4 °C 5,6 °C 2,2 °C 73 % 1020,7 hPa 0,0 l/m² 0 min 0 W/m² 6,4 km/h (2 Bft) 97,87 %
02.04.2026 00:14 6,4 °C 5,6 °C 2,2 °C 73 % 1020,7 hPa 0,0 l/m² 0 min 0 W/m² 3,2 km/h (1 Bft) 97,87 %
02.04.2026 00:16 6,3 °C 5,6 °C 2,2 °C 74 % 1020,7 hPa 0,0 l/m² 0 min 0 W/m² 6,4 km/h (2 Bft) 97,87 %
02.04.2026 00:18 6,3 °C 5,6 °C 2,2 °C 74 % 1020,6 hPa 0,0 l/m² 0 min 0 W/m² 3,2 km/h (1 Bft) 97,87 %
02.04.2026 00:20 6,3 °C 5,6 °C 2,2 °C 74 % 1020,7 hPa 0,0 l/m² 0 min 0 W/m² 6,4 km/h (2 Bft) 97,87 %
02.04.2026 00:22 6,3 °C 5,6 °C 2,2 °C 74 % 1020,7 hPa 0,0 l/m² 0 min 0 W/m² 3,2 km/h (1 Bft) 97,37 %
02.04.2026 00:24 6,3 °C 5,6 °C 2,2 °C 74 % 1020,7 hPa 0,0 l/m² 0 min 0 W/m² 12,9 km/h (3 Bft) 94,00 %
02.04.2026 00:26 6,3 °C 5,6 °C 2,2 °C 74 % 1020,6 hPa 0,0 l/m² 0 min 0 W/m² 6,4 km/h (2 Bft) 97,87 %
02.04.2026 00:28 6,3 °C 5,6 °C 2,2 °C 74 % 1020,6 hPa 0,0 l/m² 0 min 0 W/m² 6,4 km/h (2 Bft) 93,62 %
02.04.2026 00:30 6,3 °C 5,6 °C 2,2 °C 74 % 1020,6 hPa 0,0 l/m² 0 min 0 W/m² 3,2 km/h (1 Bft) 93,62 %
02.04.2026 00:32 6,2 °C 5,0 °C 2,2 °C 74 % 1020,5 hPa 0,0 l/m² 0 min 0 W/m² 6,4 km/h (2 Bft) 94,00 %
02.04.2026 00:34 6,2 °C 5,0 °C 2,2 °C 74 % 1020,5 hPa 0,0 l/m² 0 min 0 W/m² 6,4 km/h (2 Bft) 92,11 %
02.04.2026 00:36 6,2 °C 5,0 °C 2,2 °C 74 % 1020,5 hPa 0,0 l/m² 0 min 0 W/m² 6,4 km/h (2 Bft) 93,22 %
02.04.2026 00:38 6,2 °C 5,0 °C 2,2 °C 74 % 1020,5 hPa 0,0 l/m² 0 min 0 W/m² 6,4 km/h (2 Bft) 94,29 %
02.04.2026 00:40 6,2 °C 5,0 °C 2,2 °C 74 % 1020,5 hPa 0,0 l/m² 0 min 0 W/m² 6,4 km/h (2 Bft) 93,62 %
02.04.2026 00:42 6,1 °C 5,0 °C 2,2 °C 74 % 1020,5 hPa 0,0 l/m² 0 min 0 W/m² 6,4 km/h (2 Bft) 91,49 %
02.04.2026 00:44 6,1 °C 5,0 °C 2,2 °C 74 % 1020,4 hPa 0,0 l/m² 0 min 0 W/m² 6,4 km/h (2 Bft) 94,00 %
02.04.2026 00:46 6,1 °C 5,0 °C 2,2 °C 75 % 1020,4 hPa 0,0 l/m² 0 min 0 W/m² 6,4 km/h (2 Bft) 95,74 %
02.04.2026 00:48 6,1 °C 5,0 °C 2,2 °C 75 % 1020,4 hPa 0,0 l/m² 0 min 0 W/m² 6,4 km/h (2 Bft) 94,00 %
02.04.2026 00:50 6,1 °C 5,0 °C 1,7 °C 75 % 1020,4 hPa 0,0 l/m² 0 min 0 W/m² 6,4 km/h (2 Bft) 95,74 %
02.04.2026 00:52 6,1 °C 5,0 °C 1,7 °C 75 % 1020,4 hPa 0,0 l/m² 0 min 0 W/m² 6,4 km/h (2 Bft) 96,00 %
02.04.2026 00:54 6,0 °C 5,0 °C 1,7 °C 75 % 1020,3 hPa 0,0 l/m² 0 min 0 W/m² 6,4 km/h (2 Bft) 95,74 %
02.04.2026 00:56 6,0 °C 5,0 °C 1,7 °C 75 % 1020,3 hPa 0,0 l/m² 0 min 0 W/m² 9,7 km/h (2 Bft) 94,29 %
02.04.2026 00:58 5,9 °C 5,0 °C 1,7 °C 75 % 1020,3 hPa 0,0 l/m² 0 min 0 W/m² 6,4 km/h (2 Bft) 96,61 %
02.04.2026 01:00 5,9 °C 5,0 °C 1,7 °C 75 % 1020,3 hPa 0,0 l/m² 0 min 0 W/m² 6,4 km/h (2 Bft) 94,44 %
02.04.2026 01:02 5,9 °C 5,0 °C 1,7 °C 75 % 1020,2 hPa 0,0 l/m² 0 min 0 W/m² 12,9 km/h (3 Bft) 96,00 %
02.04.2026 01:04 5,9 °C 5,0 °C 1,7 °C 75 % 1020,2 hPa 0,0 l/m² 0 min 0 W/m² 6,4 km/h (2 Bft) 96,00 %
02.04.2026 01:06 5,9 °C 5,0 °C 1,7 °C 75 % 1020,2 hPa 0,0 l/m² 0 min 0 W/m² 9,7 km/h (2 Bft) 93,48 %
02.04.2026 01:08 5,9 °C 5,0 °C 1,7 °C 75 % 1020,2 hPa 0,0 l/m² 0 min 0 W/m² 6,4 km/h (2 Bft) 97,87 %
02.04.2026 01:10 5,8 °C 5,0 °C 1,7 °C 75 % 1020,2 hPa 0,0 l/m² 0 min 0 W/m² 6,4 km/h (2 Bft) 97,87 %
02.04.2026 01:12 5,8 °C 5,0 °C 1,7 °C 75 % 1020,2 hPa 0,0 l/m² 0 min 0 W/m² 12,9 km/h (3 Bft) 97,87 %
02.04.2026 01:14 5,8 °C 5,0 °C 1,7 °C 75 % 1020,2 hPa 0,0 l/m² 0 min 0 W/m² 9,7 km/h (2 Bft) 97,87 %
02.04.2026 01:16 5,8 °C 5,0 °C 1,7 °C 75 % 1020,1 hPa 0,0 l/m² 0 min 0 W/m² 16,1 km/h (3 Bft) 97,87 %
02.04.2026 01:18 5,8 °C 5,0 °C 1,7 °C 76 % 1020,1 hPa 0,0 l/m² 0 min 0 W/m² 12,9 km/h (3 Bft) 97,87 %
02.04.2026 01:20 5,8 °C 5,0 °C 1,7 °C 75 % 1020,1 hPa 0,0 l/m² 0 min 0 W/m² 12,9 km/h (3 Bft) 98,00 %
02.04.2026 01:22 5,8 °C 5,0 °C 1,7 °C 76 % 1020,1 hPa 0,0 l/m² 0 min 0 W/m² 12,9 km/h (3 Bft) 51,11 %
02.04.2026 01:24 5,7 °C 5,0 °C 1,7 °C 76 % 1020,1 hPa 0,0 l/m² 0 min 0 W/m² 9,7 km/h (2 Bft) 97,37 %
02.04.2026 01:26 5,7 °C 5,0 °C 1,7 °C 76 % 1020,1 hPa 0,0 l/m² 0 min 0 W/m² 12,9 km/h (3 Bft) 100,00 %
02.04.2026 01:28 5,7 °C 5,0 °C 1,7 °C 76 % 1020,2 hPa 0,0 l/m² 0 min 0 W/m² 12,9 km/h (3 Bft) 97,87 %
02.04.2026 01:30 5,7 °C 5,0 °C 1,7 °C 76 % 1020,1 hPa 0,0 l/m² 0 min 0 W/m² 6,4 km/h (2 Bft) 100,00 %
02.04.2026 01:32 5,7 °C 5,0 °C 1,7 °C 76 % 1020,1 hPa 0,0 l/m² 0 min 0 W/m² 12,9 km/h (3 Bft) 98,08 %
02.04.2026 01:34 5,7 °C 5,0 °C 1,7 °C 76 % 1020,1 hPa 0,0 l/m² 0 min 0 W/m² 9,7 km/h (2 Bft) 97,87 %
02.04.2026 01:36 5,7 °C 5,0 °C 1,7 °C 76 % 1020,1 hPa 0,0 l/m² 0 min 0 W/m² 12,9 km/h (3 Bft) 97,87 %
02.04.2026 01:38 5,6 °C 5,0 °C 1,7 °C 76 % 1020,1 hPa 0,0 l/m² 0 min 0 W/m² 16,1 km/h (3 Bft) 100,00 %
02.04.2026 01:40 5,6 °C 5,0 °C 1,7 °C 76 % 1020,1 hPa 0,0 l/m² 0 min 0 W/m² 12,9 km/h (3 Bft) 100,00 %
02.04.2026 01:42 5,6 °C 4,4 °C 1,7 °C 76 % 1020,1 hPa 0,0 l/m² 0 min 0 W/m² 12,9 km/h (3 Bft) 100,00 %
02.04.2026 01:44 5,6 °C 4,4 °C 1,7 °C 76 % 1020,1 hPa 0,0 l/m² 0 min 0 W/m² 6,4 km/h (2 Bft) 100,00 %
02.04.2026 01:46 5,6 °C 4,4 °C 1,7 °C 76 % 1020,1 hPa 0,0 l/m² 0 min 0 W/m² 6,4 km/h (2 Bft) 100,00 %
02.04.2026 01:48 5,6 °C 4,4 °C 1,7 °C 76 % 1020,1 hPa 0,0 l/m² 0 min 0 W/m² 6,4 km/h (2 Bft) 100,00 %
02.04.2026 01:50 5,6 °C 4,4 °C 1,7 °C 76 % 1020,1 hPa 0,0 l/m² 0 min 0 W/m² 9,7 km/h (2 Bft) 97,87 %
02.04.2026 01:52 5,5 °C 4,4 °C 1,1 °C 76 % 1020,0 hPa 0,0 l/m² 0 min 0 W/m² 12,9 km/h (3 Bft) 97,87 %
02.04.2026 01:54 5,5 °C 4,4 °C 1,1 °C 76 % 1020,0 hPa 0,0 l/m² 0 min 0 W/m² 6,4 km/h (2 Bft) 100,00 %
02.04.2026 01:56 5,5 °C 4,4 °C 1,1 °C 76 % 1020,0 hPa 0,0 l/m² 0 min 0 W/m² 6,4 km/h (2 Bft) 100,00 %
02.04.2026 01:58 5,4 °C 4,4 °C 1,1 °C 76 % 1020,0 hPa 0,0 l/m² 0 min 0 W/m² 6,4 km/h (2 Bft) 97,87 %
02.04.2026 02:00 5,4 °C 4,4 °C 1,1 °C 76 % 1019,9 hPa 0,0 l/m² 0 min 0 W/m² 6,4 km/h (2 Bft) 97,87 %
02.04.2026 02:02 5,4 °C 4,4 °C 1,1 °C 76 % 1019,9 hPa 0,0 l/m² 0 min 0 W/m² 6,4 km/h (2 Bft) 97,96 %
02.04.2026 02:04 5,3 °C 4,4 °C 1,1 °C 76 % 1019,9 hPa 0,0 l/m² 0 min 0 W/m² 9,7 km/h (2 Bft) 97,22 %
02.04.2026 02:06 5,3 °C 4,4 °C 1,1 °C 77 % 1019,9 hPa 0,0 l/m² 0 min 0 W/m² 6,4 km/h (2 Bft) 98,36 %
02.04.2026 02:08 5,3 °C 4,4 °C 1,1 °C 77 % 1019,8 hPa 0,0 l/m² 0 min 0 W/m² 6,4 km/h (2 Bft) 94,74 %
02.04.2026 02:10 5,3 °C 3,9 °C 1,1 °C 77 % 1019,9 hPa 0,0 l/m² 0 min 0 W/m² 0,0 km/h (0 Bft) 97,87 %
02.04.2026 02:12 5,3 °C 3,9 °C 1,1 °C 77 % 1019,8 hPa 0,0 l/m² 0 min 0 W/m² 6,4 km/h (2 Bft) 100,00 %
02.04.2026 02:14 5,2 °C 3,9 °C 1,1 °C 77 % 1019,8 hPa 0,0 l/m² 0 min 0 W/m² 6,4 km/h (2 Bft) 100,00 %
02.04.2026 02:16 5,2 °C 3,9 °C 1,1 °C 77 % 1019,8 hPa 0,0 l/m² 0 min 0 W/m² 9,7 km/h (2 Bft) 100,00 %
02.04.2026 02:18 5,2 °C 3,9 °C 1,1 °C 77 % 1019,7 hPa 0,0 l/m² 0 min 0 W/m² 6,4 km/h (2 Bft) 97,87 %
02.04.2026 02:20 5,2 °C 3,9 °C 1,1 °C 77 % 1019,7 hPa 0,0 l/m² 0 min 0 W/m² 6,4 km/h (2 Bft) 95,65 %
02.04.2026 02:22 5,1 °C 3,9 °C 1,1 °C 77 % 1019,7 hPa 0,0 l/m² 0 min 0 W/m² 6,4 km/h (2 Bft) 95,74 %
02.04.2026 02:24 5,1 °C 3,9 °C 1,1 °C 78 % 1019,7 hPa 0,0 l/m² 0 min 0 W/m² 3,2 km/h (1 Bft) 43,59 %
02.04.2026 02:26 5,1 °C 3,9 °C 0,6 °C 78 % 1019,7 hPa 0,0 l/m² 0 min 0 W/m² 6,4 km/h (2 Bft) 100,00 %
02.04.2026 02:28 5,1 °C 3,9 °C 0,6 °C 78 % 1019,7 hPa 0,0 l/m² 0 min 0 W/m² 6,4 km/h (2 Bft) 100,00 %
02.04.2026 02:30 5,0 °C 3,9 °C 0,6 °C 78 % 1019,6 hPa 0,0 l/m² 0 min 0 W/m² 3,2 km/h (1 Bft) 100,00 %
02.04.2026 02:32 5,0 °C 3,9 °C 0,6 °C 78 % 1019,6 hPa 0,0 l/m² 0 min 0 W/m² 3,2 km/h (1 Bft) 95,74 %
02.04.2026 02:34 4,9 °C 3,9 °C 0,6 °C 78 % 1019,6 hPa 0,0 l/m² 0 min 0 W/m² 0,0 km/h (0 Bft) 100,00 %
02.04.2026 02:36 4,9 °C 3,9 °C 0,6 °C 78 % 1019,5 hPa 0,0 l/m² 0 min 0 W/m² 3,2 km/h (1 Bft) 91,49 %
02.04.2026 02:38 4,9 °C 3,3 °C 0,6 °C 78 % 1019,5 hPa 0,0 l/m² 0 min 0 W/m² 3,2 km/h (1 Bft) 95,74 %
02.04.2026 02:40 4,9 °C 3,3 °C 0,6 °C 78 % 1019,5 hPa 0,0 l/m² 0 min 0 W/m² 6,4 km/h (2 Bft) 97,87 %
02.04.2026 02:42 4,8 °C 3,3 °C 0,6 °C 78 % 1019,5 hPa 0,0 l/m² 0 min 0 W/m² 3,2 km/h (1 Bft) 97,87 %
02.04.2026 02:44 4,8 °C 3,3 °C 0,6 °C 78 % 1019,5 hPa 0,0 l/m² 0 min 0 W/m² 3,2 km/h (1 Bft) 97,37 %
02.04.2026 02:46 4,8 °C 3,3 °C 0,6 °C 78 % 1019,5 hPa 0,0 l/m² 0 min 0 W/m² 3,2 km/h (1 Bft) 95,74 %
02.04.2026 02:48 4,8 °C 3,3 °C 0,6 °C 79 % 1019,4 hPa 0,0 l/m² 0 min 0 W/m² 3,2 km/h (1 Bft) 97,87 %
02.04.2026 02:50 4,7 °C 3,3 °C 0,6 °C 78 % 1019,5 hPa 0,0 l/m² 0 min 0 W/m² 3,2 km/h (1 Bft) 97,87 %
02.04.2026 02:52 4,7 °C 3,3 °C 0,6 °C 79 % 1019,4 hPa 0,0 l/m² 0 min 0 W/m² 3,2 km/h (1 Bft) 97,87 %
02.04.2026 02:54 4,7 °C 3,3 °C 0,6 °C 79 % 1019,4 hPa 0,0 l/m² 0 min 0 W/m² 3,2 km/h (1 Bft) 97,87 %
02.04.2026 02:56 4,6 °C 3,3 °C 0,6 °C 79 % 1019,3 hPa 0,0 l/m² 0 min 0 W/m² 6,4 km/h (2 Bft) 93,62 %
02.04.2026 02:58 4,6 °C 3,3 °C 0,6 °C 79 % 1019,3 hPa 0,0 l/m² 0 min 0 W/m² 3,2 km/h (1 Bft) 98,00 %
02.04.2026 03:00 4,6 °C 3,3 °C 0,6 °C 79 % 1019,3 hPa 0,0 l/m² 0 min 0 W/m² 6,4 km/h (2 Bft) 98,00 %
02.04.2026 03:02 4,6 °C 3,3 °C 0,6 °C 79 % 1019,3 hPa 0,0 l/m² 0 min 0 W/m² 6,4 km/h (2 Bft) 93,62 %
02.04.2026 03:04 4,5 °C 3,3 °C 0,6 °C 79 % 1019,2 hPa 0,0 l/m² 0 min 0 W/m² 6,4 km/h (2 Bft) 97,87 %
02.04.2026 03:06 4,5 °C 3,3 °C 0,6 °C 79 % 1019,3 hPa 0,0 l/m² 0 min 0 W/m² 6,4 km/h (2 Bft) 97,96 %
02.04.2026 03:08 4,4 °C 3,3 °C 0,6 °C 79 % 1019,3 hPa 0,0 l/m² 0 min 0 W/m² 6,4 km/h (2 Bft) 100,00 %
02.04.2026 03:10 4,4 °C 3,3 °C 0,0 °C 79 % 1019,3 hPa 0,0 l/m² 0 min 0 W/m² 6,4 km/h (2 Bft) 100,00 %
02.04.2026 03:12 4,4 °C 3,3 °C 0,6 °C 80 % 1019,2 hPa 0,0 l/m² 0 min 0 W/m² 6,4 km/h (2 Bft) 100,00 %
02.04.2026 03:14 4,3 °C 3,3 °C 0,6 °C 80 % 1019,2 hPa 0,0 l/m² 0 min 0 W/m² 12,9 km/h (3 Bft) 96,00 %
02.04.2026 03:16 4,3 °C 3,3 °C 0,0 °C 80 % 1019,2 hPa 0,0 l/m² 0 min 0 W/m² 6,4 km/h (2 Bft) 97,87 %
02.04.2026 03:18 4,3 °C 3,3 °C 0,0 °C 80 % 1019,1 hPa 0,0 l/m² 0 min 0 W/m² 12,9 km/h (3 Bft) 100,00 %
02.04.2026 03:20 4,3 °C 3,3 °C 0,0 °C 80 % 1019,2 hPa 0,0 l/m² 0 min 0 W/m² 6,4 km/h (2 Bft) 100,00 %
02.04.2026 03:22 4,2 °C 3,3 °C 0,0 °C 80 % 1019,1 hPa 0,0 l/m² 0 min 0 W/m² 6,4 km/h (2 Bft) 98,00 %
02.04.2026 03:24 4,2 °C 3,3 °C 0,0 °C 80 % 1019,1 hPa 0,0 l/m² 0 min 0 W/m² 9,7 km/h (2 Bft) 100,00 %
02.04.2026 03:26 4,2 °C 3,3 °C 0,0 °C 80 % 1019,1 hPa 0,0 l/m² 0 min 0 W/m² 6,4 km/h (2 Bft) 100,00 %
02.04.2026 03:28 4,2 °C 3,3 °C 0,0 °C 80 % 1019,1 hPa 0,0 l/m² 0 min 0 W/m² 6,4 km/h (2 Bft) 100,00 %
02.04.2026 03:30 4,1 °C 3,3 °C 0,0 °C 81 % 1019,0 hPa 0,0 l/m² 0 min 0 W/m² 12,9 km/h (3 Bft) 100,00 %
02.04.2026 03:32 4,1 °C 3,3 °C 0,0 °C 81 % 1019,1 hPa 0,0 l/m² 0 min 0 W/m² 6,4 km/h (2 Bft) 96,00 %
02.04.2026 03:34 4,1 °C 3,3 °C 0,0 °C 81 % 1019,1 hPa 0,0 l/m² 0 min 0 W/m² 6,4 km/h (2 Bft) 100,00 %
02.04.2026 03:36 4,1 °C 3,3 °C 0,0 °C 81 % 1019,1 hPa 0,0 l/m² 0 min 0 W/m² 3,2 km/h (1 Bft) 100,00 %
02.04.2026 03:38 4,1 °C 3,3 °C 0,0 °C 81 % 1019,1 hPa 0,0 l/m² 0 min 0 W/m² 6,4 km/h (2 Bft) 100,00 %
02.04.2026 03:40 4,1 °C 2,8 °C 0,0 °C 81 % 1019,0 hPa 0,0 l/m² 0 min 0 W/m² 12,9 km/h (3 Bft) 97,87 %
02.04.2026 03:42 4,0 °C 2,8 °C 0,0 °C 81 % 1019,1 hPa 0,0 l/m² 0 min 0 W/m² 6,4 km/h (2 Bft) 93,88 %
02.04.2026 03:44 4,0 °C 2,8 °C 0,0 °C 81 % 1019,0 hPa 0,0 l/m² 0 min 0 W/m² 3,2 km/h (1 Bft) 98,00 %
02.04.2026 03:46 3,9 °C 2,8 °C 0,0 °C 81 % 1019,0 hPa 0,0 l/m² 0 min 0 W/m² 3,2 km/h (1 Bft) 97,87 %
02.04.2026 03:48 3,9 °C 2,8 °C 0,0 °C 81 % 1019,0 hPa 0,0 l/m² 0 min 0 W/m² 6,4 km/h (2 Bft) 97,73 %
02.04.2026 03:50 3,9 °C 2,8 °C 0,0 °C 81 % 1019,0 hPa 0,0 l/m² 0 min 0 W/m² 6,4 km/h (2 Bft) 96,23 %
02.04.2026 03:52 3,9 °C 2,8 °C 0,0 °C 81 % 1019,0 hPa 0,0 l/m² 0 min 0 W/m² 3,2 km/h (1 Bft) 97,37 %
02.04.2026 03:54 3,9 °C 2,8 °C 0,0 °C 81 % 1018,9 hPa 0,0 l/m² 0 min 0 W/m² 6,4 km/h (2 Bft) 92,45 %
02.04.2026 03:56 3,9 °C 2,8 °C 0,0 °C 81 % 1018,9 hPa 0,0 l/m² 0 min 0 W/m² 6,4 km/h (2 Bft) 95,74 %
02.04.2026 03:58 3,8 °C 2,8 °C 0,0 °C 82 % 1018,8 hPa 0,0 l/m² 0 min 0 W/m² 3,2 km/h (1 Bft) 92,00 %
02.04.2026 04:00 3,8 °C 2,8 °C 0,0 °C 82 % 1018,8 hPa 0,0 l/m² 0 min 0 W/m² 6,4 km/h (2 Bft) 94,29 %
02.04.2026 04:02 3,8 °C 2,8 °C 0,0 °C 82 % 1018,8 hPa 0,0 l/m² 0 min 0 W/m² 3,2 km/h (1 Bft) 94,00 %
02.04.2026 04:04 3,8 °C 2,8 °C 0,0 °C 82 % 1018,8 hPa 0,0 l/m² 0 min 0 W/m² 6,4 km/h (2 Bft) 95,74 %
02.04.2026 04:06 3,8 °C 2,8 °C 0,0 °C 82 % 1018,7 hPa 0,0 l/m² 0 min 0 W/m² 3,2 km/h (1 Bft) 96,61 %
02.04.2026 04:08 3,7 °C 2,8 °C 0,0 °C 82 % 1018,7 hPa 0,0 l/m² 0 min 0 W/m² 3,2 km/h (1 Bft) 97,14 %
02.04.2026 04:10 3,7 °C 2,8 °C -0,6 °C 82 % 1018,7 hPa 0,0 l/m² 0 min 0 W/m² 3,2 km/h (1 Bft) 97,87 %
02.04.2026 04:12 3,7 °C 2,8 °C -0,6 °C 82 % 1018,6 hPa 0,0 l/m² 0 min 0 W/m² 3,2 km/h (1 Bft) 93,62 %
02.04.2026 04:14 3,7 °C 2,8 °C -0,6 °C 82 % 1018,6 hPa 0,0 l/m² 0 min 0 W/m² 3,2 km/h (1 Bft) 97,87 %
02.04.2026 04:16 3,7 °C 2,8 °C -0,6 °C 82 % 1018,6 hPa 0,0 l/m² 0 min 0 W/m² 6,4 km/h (2 Bft) 93,62 %
02.04.2026 04:18 3,6 °C 2,8 °C -0,6 °C 82 % 1018,6 hPa 0,0 l/m² 0 min 0 W/m² 3,2 km/h (1 Bft) 95,74 %
02.04.2026 04:20 3,6 °C 2,8 °C -0,6 °C 82 % 1018,6 hPa 0,0 l/m² 0 min 0 W/m² 3,2 km/h (1 Bft) 98,00 %
02.04.2026 04:22 3,6 °C 2,8 °C -0,6 °C 82 % 1018,5 hPa 0,0 l/m² 0 min 0 W/m² 3,2 km/h (1 Bft) 96,00 %
02.04.2026 04:24 3,6 °C 2,2 °C -0,6 °C 82 % 1018,5 hPa 0,0 l/m² 0 min 0 W/m² 3,2 km/h (1 Bft) 93,62 %
02.04.2026 04:26 3,6 °C 2,2 °C -0,6 °C 82 % 1018,5 hPa 0,0 l/m² 0 min 0 W/m² 6,4 km/h (2 Bft) 97,87 %
02.04.2026 04:28 3,5 °C 2,2 °C -0,6 °C 82 % 1018,4 hPa 0,0 l/m² 0 min 0 W/m² 9,7 km/h (2 Bft) 95,74 %
02.04.2026 04:30 3,5 °C 2,8 °C -0,6 °C 82 % 1018,5 hPa 0,0 l/m² 0 min 0 W/m² 3,2 km/h (1 Bft) 97,87 %
02.04.2026 04:32 3,5 °C 2,2 °C -0,6 °C 83 % 1018,5 hPa 0,0 l/m² 0 min 0 W/m² 6,4 km/h (2 Bft) 93,62 %
02.04.2026 04:34 3,4 °C 2,2 °C -0,6 °C 83 % 1018,5 hPa 0,0 l/m² 0 min 0 W/m² 6,4 km/h (2 Bft) 93,88 %
02.04.2026 04:36 3,4 °C 2,2 °C -0,6 °C 83 % 1018,5 hPa 0,0 l/m² 0 min 0 W/m² 3,2 km/h (1 Bft) 97,22 %
02.04.2026 04:38 3,4 °C 2,2 °C -0,6 °C 83 % 1018,4 hPa 0,0 l/m² 0 min 0 W/m² 6,4 km/h (2 Bft) 95,74 %
02.04.2026 04:40 3,4 °C 2,2 °C -0,6 °C 83 % 1018,5 hPa 0,0 l/m² 0 min 0 W/m² 3,2 km/h (1 Bft) 92,31 %
02.04.2026 04:42 3,4 °C 2,2 °C -0,6 °C 83 % 1018,4 hPa 0,0 l/m² 0 min 0 W/m² 6,4 km/h (2 Bft) 94,87 %
02.04.2026 04:44 3,4 °C 2,2 °C -0,6 °C 83 % 1018,4 hPa 0,0 l/m² 0 min 0 W/m² 6,4 km/h (2 Bft) 96,00 %
02.04.2026 04:46 3,3 °C 2,2 °C -0,6 °C 83 % 1018,3 hPa 0,0 l/m² 0 min 0 W/m² 6,4 km/h (2 Bft) 95,74 %
02.04.2026 04:48 3,3 °C 2,2 °C -0,6 °C 83 % 1018,3 hPa 0,0 l/m² 0 min 0 W/m² 3,2 km/h (1 Bft) 95,74 %
02.04.2026 04:50 3,3 °C 2,2 °C -0,6 °C 83 % 1018,3 hPa 0,0 l/m² 0 min 0 W/m² 0,0 km/h (0 Bft) 95,74 %
02.04.2026 04:52 3,3 °C 2,2 °C -0,6 °C 83 % 1018,3 hPa 0,0 l/m² 0 min 0 W/m² 0,0 km/h (0 Bft) 97,96 %
02.04.2026 04:54 3,3 °C 2,2 °C -0,6 °C 83 % 1018,3 hPa 0,0 l/m² 0 min 0 W/m² 0,0 km/h (0 Bft) 97,87 %
02.04.2026 04:56 3,3 °C 2,2 °C -0,6 °C 83 % 1018,3 hPa 0,0 l/m² 0 min 0 W/m² 3,2 km/h (1 Bft) 97,87 %
02.04.2026 04:58 3,3 °C 2,2 °C -0,6 °C 83 % 1018,3 hPa 0,0 l/m² 0 min 0 W/m² 0,0 km/h (0 Bft) 95,74 %
02.04.2026 05:00 3,2 °C 2,2 °C -0,6 °C 83 % 1018,3 hPa 0,0 l/m² 0 min 0 W/m² 0,0 km/h (0 Bft) 93,62 %
02.04.2026 05:02 3,2 °C 2,2 °C -1,1 °C 84 % 1018,3 hPa 0,0 l/m² 0 min 0 W/m² 0,0 km/h (0 Bft) 95,74 %
02.04.2026 05:04 3,2 °C 2,2 °C -0,6 °C 84 % 1018,3 hPa 0,0 l/m² 0 min 0 W/m² 0,0 km/h (0 Bft) 91,49 %
02.04.2026 05:06 3,2 °C 2,2 °C -0,6 °C 83 % 1018,3 hPa 0,0 l/m² 0 min 0 W/m² 3,2 km/h (1 Bft) 38,46 %
02.04.2026 05:08 3,2 °C 2,2 °C -0,6 °C 84 % 1018,2 hPa 0,0 l/m² 0 min 0 W/m² 3,2 km/h (1 Bft) 100,00 %
02.04.2026 05:10 3,1 °C 2,2 °C -1,1 °C 84 % 1018,2 hPa 0,0 l/m² 0 min 0 W/m² 3,2 km/h (1 Bft) 97,87 %
02.04.2026 05:12 3,1 °C 2,2 °C -1,1 °C 84 % 1018,3 hPa 0,0 l/m² 0 min 0 W/m² 0,0 km/h (0 Bft) 100,00 %
02.04.2026 05:14 3,1 °C 2,2 °C -1,1 °C 84 % 1018,2 hPa 0,0 l/m² 0 min 0 W/m² 0,0 km/h (0 Bft) 100,00 %
02.04.2026 05:16 3,1 °C 2,2 °C -1,1 °C 84 % 1018,2 hPa 0,0 l/m² 0 min 0 W/m² 0,0 km/h (0 Bft) 95,74 %
02.04.2026 05:18 3,1 °C 1,7 °C -1,1 °C 84 % 1018,2 hPa 0,0 l/m² 0 min 0 W/m² 0,0 km/h (0 Bft) 95,74 %
02.04.2026 05:20 3,1 °C 1,7 °C -1,1 °C 84 % 1018,2 hPa 0,0 l/m² 0 min 0 W/m² 0,0 km/h (0 Bft) 97,87 %
02.04.2026 05:22 3,1 °C 1,7 °C -1,1 °C 84 % 1018,2 hPa 0,0 l/m² 0 min 0 W/m² 0,0 km/h (0 Bft) 97,87 %
02.04.2026 05:24 3,0 °C 1,7 °C -1,1 °C 84 % 1018,2 hPa 0,0 l/m² 0 min 0 W/m² 0,0 km/h (0 Bft) 98,00 %
02.04.2026 05:26 3,0 °C 1,7 °C -1,1 °C 84 % 1018,1 hPa 0,0 l/m² 0 min 0 W/m² 3,2 km/h (1 Bft) 97,62 %
02.04.2026 05:28 3,0 °C 1,7 °C -1,1 °C 84 % 1018,1 hPa 0,0 l/m² 0 min 0 W/m² 0,0 km/h (0 Bft) 97,87 %
02.04.2026 05:30 2,9 °C 1,7 °C -1,1 °C 84 % 1018,1 hPa 0,0 l/m² 0 min 0 W/m² 0,0 km/h (0 Bft) 98,15 %
02.04.2026 05:32 2,9 °C 1,7 °C -1,1 °C 84 % 1018,0 hPa 0,0 l/m² 0 min 0 W/m² 6,4 km/h (2 Bft) 97,14 %
02.04.2026 05:34 2,9 °C 1,7 °C -1,1 °C 84 % 1018,0 hPa 0,0 l/m² 0 min 0 W/m² 3,2 km/h (1 Bft) 98,25 %
02.04.2026 05:36 2,9 °C 1,7 °C -1,1 °C 84 % 1018,0 hPa 0,0 l/m² 0 min 0 W/m² 3,2 km/h (1 Bft) 97,87 %
02.04.2026 05:38 2,8 °C 1,7 °C -1,1 °C 84 % 1017,9 hPa 0,0 l/m² 0 min 0 W/m² 3,2 km/h (1 Bft) 97,83 %
02.04.2026 05:40 2,8 °C 1,7 °C -1,1 °C 84 % 1017,9 hPa 0,0 l/m² 0 min 0 W/m² 0,0 km/h (0 Bft) 97,87 %
02.04.2026 05:42 2,8 °C 1,7 °C -1,1 °C 85 % 1017,9 hPa 0,0 l/m² 0 min 0 W/m² 0,0 km/h (0 Bft) 97,87 %
02.04.2026 05:44 2,8 °C 1,7 °C -1,1 °C 85 % 1017,9 hPa 0,0 l/m² 0 min 0 W/m² 0,0 km/h (0 Bft) 100,00 %
02.04.2026 05:46 2,8 °C 1,7 °C -1,1 °C 85 % 1017,9 hPa 0,0 l/m² 0 min 0 W/m² 3,2 km/h (1 Bft) 97,22 %
02.04.2026 05:48 2,8 °C 1,7 °C -1,1 °C 85 % 1017,9 hPa 0,0 l/m² 0 min 0 W/m² 0,0 km/h (0 Bft) 100,00 %
02.04.2026 05:50 2,8 °C 1,7 °C -1,1 °C 85 % 1017,9 hPa 0,0 l/m² 0 min 0 W/m² 0,0 km/h (0 Bft) 100,00 %
02.04.2026 05:52 2,8 °C 1,7 °C -1,1 °C 85 % 1017,8 hPa 0,0 l/m² 0 min 0 W/m² 3,2 km/h (1 Bft) 100,00 %
02.04.2026 05:54 2,7 °C 1,7 °C -1,1 °C 85 % 1017,8 hPa 0,0 l/m² 0 min 0 W/m² 3,2 km/h (1 Bft) 97,87 %
02.04.2026 05:56 2,7 °C 1,7 °C -1,1 °C 85 % 1017,8 hPa 0,0 l/m² 0 min 0 W/m² 9,7 km/h (2 Bft) 100,00 %
02.04.2026 05:58 2,7 °C 1,7 °C -1,1 °C 85 % 1017,8 hPa 0,0 l/m² 0 min 0 W/m² 6,4 km/h (2 Bft) 100,00 %
02.04.2026 06:00 2,7 °C 1,7 °C -1,1 °C 85 % 1017,8 hPa 0,0 l/m² 0 min 0 W/m² 6,4 km/h (2 Bft) 100,00 %
02.04.2026 06:02 2,7 °C 1,7 °C -1,1 °C 85 % 1017,7 hPa 0,0 l/m² 0 min 0 W/m² 6,4 km/h (2 Bft) 100,00 %
02.04.2026 06:04 2,7 °C 1,7 °C -1,1 °C 85 % 1017,8 hPa 0,0 l/m² 0 min 0 W/m² 12,9 km/h (3 Bft) 100,00 %
02.04.2026 06:06 2,7 °C 1,7 °C -1,1 °C 85 % 1017,8 hPa 0,0 l/m² 0 min 0 W/m² 6,4 km/h (2 Bft) 100,00 %
02.04.2026 06:08 2,6 °C 1,7 °C -1,1 °C 85 % 1017,7 hPa 0,0 l/m² 0 min 0 W/m² 6,4 km/h (2 Bft) 97,56 %
02.04.2026 06:10 2,6 °C 1,7 °C -1,1 °C 86 % 1017,6 hPa 0,0 l/m² 0 min 0 W/m² 6,4 km/h (2 Bft) 100,00 %
02.04.2026 06:12 2,6 °C 1,7 °C -1,1 °C 86 % 1017,6 hPa 0,0 l/m² 0 min 0 W/m² 6,4 km/h (2 Bft) 97,87 %
02.04.2026 06:14 2,6 °C 1,7 °C -1,1 °C 86 % 1017,7 hPa 0,0 l/m² 0 min 0 W/m² 3,2 km/h (1 Bft) 100,00 %
02.04.2026 06:16 2,6 °C 1,7 °C -1,1 °C 86 % 1017,7 hPa 0,0 l/m² 0 min 0 W/m² 6,4 km/h (2 Bft) 100,00 %
02.04.2026 06:18 2,6 °C 1,7 °C -1,1 °C 86 % 1017,6 hPa 0,0 l/m² 0 min 0 W/m² 6,4 km/h (2 Bft) 100,00 %
02.04.2026 06:20 2,6 °C 1,7 °C -1,1 °C 86 % 1017,7 hPa 0,0 l/m² 0 min 0 W/m² 6,4 km/h (2 Bft) 97,87 %
02.04.2026 06:22 2,6 °C 1,7 °C -1,1 °C 86 % 1017,6 hPa 0,0 l/m² 0 min 0 W/m² 6,4 km/h (2 Bft) 100,00 %
02.04.2026 06:24 2,6 °C 1,7 °C -1,1 °C 86 % 1017,6 hPa 0,0 l/m² 0 min 0 W/m² 6,4 km/h (2 Bft) 100,00 %
02.04.2026 06:26 2,6 °C 1,7 °C -1,1 °C 86 % 1017,7 hPa 0,0 l/m² 0 min 0 W/m² 6,4 km/h (2 Bft) 98,00 %
02.04.2026 06:28 2,5 °C 1,7 °C -1,1 °C 86 % 1017,7 hPa 0,0 l/m² 0 min 0 W/m² 3,2 km/h (1 Bft) 97,87 %
02.04.2026 06:30 2,5 °C 1,7 °C -1,1 °C 86 % 1017,7 hPa 0,0 l/m² 0 min 0 W/m² 3,2 km/h (1 Bft) 97,14 %
02.04.2026 06:32 2,5 °C 1,7 °C -1,1 °C 86 % 1017,7 hPa 0,0 l/m² 0 min 0 W/m² 3,2 km/h (1 Bft) 97,87 %
02.04.2026 06:34 2,5 °C 1,7 °C -1,1 °C 86 % 1017,8 hPa 0,0 l/m² 0 min 0 W/m² 0,0 km/h (0 Bft) 97,87 %
02.04.2026 06:36 2,4 °C 1,7 °C -1,1 °C 86 % 1017,7 hPa 0,0 l/m² 0 min 0 W/m² 3,2 km/h (1 Bft) 98,00 %
02.04.2026 06:38 2,4 °C 1,7 °C -1,1 °C 86 % 1017,7 hPa 0,0 l/m² 0 min 0 W/m² 6,4 km/h (2 Bft) 97,87 %
02.04.2026 06:40 2,4 °C 1,7 °C -1,1 °C 86 % 1017,7 hPa 0,0 l/m² 0 min 0 W/m² 6,4 km/h (2 Bft) 98,00 %
02.04.2026 06:42 2,4 °C 1,7 °C -1,1 °C 86 % 1017,7 hPa 0,0 l/m² 0 min 0 W/m² 3,2 km/h (1 Bft) 51,22 %
02.04.2026 06:44 2,4 °C 1,7 °C -1,1 °C 87 % 1017,7 hPa 0,0 l/m² 0 min 0 W/m² 3,2 km/h (1 Bft) 97,87 %
02.04.2026 06:46 2,4 °C 1,7 °C -1,1 °C 87 % 1017,6 hPa 0,0 l/m² 0 min 0 W/m² 3,2 km/h (1 Bft) 97,87 %
02.04.2026 06:48 2,4 °C 1,7 °C -1,1 °C 86 % 1017,7 hPa 0,0 l/m² 0 min 0 W/m² 6,4 km/h (2 Bft) 97,87 %
02.04.2026 06:50 2,4 °C 1,7 °C -1,1 °C 86 % 1017,7 hPa 0,0 l/m² 0 min 0 W/m² 12,9 km/h (3 Bft) 97,83 %
02.04.2026 06:52 2,4 °C 1,7 °C -1,7 °C 87 % 1017,7 hPa 0,0 l/m² 0 min 0 W/m² 6,4 km/h (2 Bft) 95,74 %
02.04.2026 06:54 2,3 °C 1,7 °C -1,7 °C 87 % 1017,6 hPa 0,0 l/m² 0 min 0 W/m² 6,4 km/h (2 Bft) 97,87 %
02.04.2026 06:56 2,3 °C 1,7 °C -1,7 °C 87 % 1017,6 hPa 0,0 l/m² 0 min 0 W/m² 6,4 km/h (2 Bft) 95,24 %
02.04.2026 06:58 2,3 °C 1,7 °C -1,7 °C 87 % 1017,6 hPa 0,0 l/m² 0 min 0 W/m² 12,9 km/h (3 Bft) 98,00 %
02.04.2026 07:00 2,3 °C 1,7 °C -1,1 °C 87 % 1017,6 hPa 0,0 l/m² 0 min 0 W/m² 6,4 km/h (2 Bft) 98,00 %
02.04.2026 07:02 2,3 °C 1,7 °C -1,1 °C 87 % 1017,5 hPa 0,0 l/m² 0 min 0 W/m² 3,2 km/h (1 Bft) 94,29 %
02.04.2026 07:04 2,3 °C 1,7 °C -1,7 °C 87 % 1017,5 hPa 0,0 l/m² 0 min 0 W/m² 3,2 km/h (1 Bft) 98,21 %
02.04.2026 07:06 2,3 °C 1,7 °C -1,7 °C 87 % 1017,5 hPa 0,0 l/m² 0 min 0 W/m² 3,2 km/h (1 Bft) 97,87 %
02.04.2026 07:08 2,3 °C 1,7 °C -1,7 °C 87 % 1017,5 hPa 0,0 l/m² 0 min 0 W/m² 3,2 km/h (1 Bft) 98,00 %
02.04.2026 07:10 2,3 °C 1,7 °C -1,7 °C 87 % 1017,4 hPa 0,0 l/m² 0 min 2 W/m² 3,2 km/h (1 Bft) 97,37 %
02.04.2026 07:12 2,3 °C 1,7 °C -1,7 °C 87 % 1017,4 hPa 0,0 l/m² 0 min 5 W/m² 3,2 km/h (1 Bft) 100,00 %
02.04.2026 07:14 2,3 °C 1,7 °C -1,7 °C 87 % 1017,5 hPa 0,0 l/m² 0 min 5 W/m² 3,2 km/h (1 Bft) 98,39 %
02.04.2026 07:16 2,2 °C 1,7 °C -1,7 °C 87 % 1017,4 hPa 0,0 l/m² 0 min 6 W/m² 12,9 km/h (3 Bft) 98,00 %
02.04.2026 07:18 2,2 °C 1,7 °C -1,7 °C 87 % 1017,4 hPa 0,0 l/m² 0 min 7 W/m² 3,2 km/h (1 Bft) 97,87 %
02.04.2026 07:20 2,2 °C 1,7 °C -1,7 °C 87 % 1017,4 hPa 0,0 l/m² 0 min 8 W/m² 6,4 km/h (2 Bft) 97,87 %
02.04.2026 07:22 2,3 °C 1,7 °C -1,1 °C 87 % 1017,4 hPa 0,0 l/m² 0 min 10 W/m² 3,2 km/h (1 Bft) 94,59 %
02.04.2026 07:24 2,2 °C 1,7 °C -1,7 °C 87 % 1017,4 hPa 0,0 l/m² 0 min 11 W/m² 6,4 km/h (2 Bft) 97,87 %
02.04.2026 07:26 2,2 °C 1,7 °C -1,1 °C 87 % 1017,4 hPa 0,0 l/m² 0 min 12 W/m² 3,2 km/h (1 Bft) 98,00 %
02.04.2026 07:28 2,2 °C 1,7 °C -1,1 °C 87 % 1017,3 hPa 0,0 l/m² 0 min 13 W/m² 6,4 km/h (2 Bft) 91,49 %
02.04.2026 07:30 2,2 °C 1,7 °C -1,1 °C 87 % 1017,4 hPa 0,0 l/m² 0 min 14 W/m² 6,4 km/h (2 Bft) 59,62 %
02.04.2026 07:32 2,2 °C 1,7 °C -1,1 °C 88 % 1017,4 hPa 0,0 l/m² 0 min 15 W/m² 6,4 km/h (2 Bft) 94,74 %
02.04.2026 07:34 2,3 °C 1,7 °C -1,1 °C 88 % 1017,4 hPa 0,0 l/m² 0 min 16 W/m² 3,2 km/h (1 Bft) 98,00 %
02.04.2026 07:36 2,3 °C 1,7 °C -1,1 °C 88 % 1017,4 hPa 0,0 l/m² 0 min 18 W/m² 3,2 km/h (1 Bft) 98,00 %
02.04.2026 07:38 2,3 °C 1,7 °C -1,1 °C 88 % 1017,4 hPa 0,0 l/m² 0 min 19 W/m² 6,4 km/h (2 Bft) 98,00 %
02.04.2026 07:40 2,3 °C 1,7 °C -1,1 °C 88 % 1017,4 hPa 0,0 l/m² 0 min 20 W/m² 3,2 km/h (1 Bft) 97,14 %
02.04.2026 07:42 2,3 °C 1,7 °C -1,1 °C 88 % 1017,5 hPa 0,0 l/m² 0 min 22 W/m² 6,4 km/h (2 Bft) 98,00 %
02.04.2026 07:44 2,3 °C 1,7 °C -1,1 °C 88 % 1017,4 hPa 0,0 l/m² 0 min 26 W/m² 3,2 km/h (1 Bft) 97,87 %
02.04.2026 07:46 2,3 °C 1,7 °C -1,1 °C 88 % 1017,5 hPa 0,0 l/m² 0 min 28 W/m² 6,4 km/h (2 Bft) 96,00 %
02.04.2026 07:48 2,3 °C 2,2 °C -1,1 °C 88 % 1017,5 hPa 0,0 l/m² 0 min 33 W/m² 6,4 km/h (2 Bft) 97,87 %
02.04.2026 07:50 2,3 °C 2,2 °C -1,1 °C 88 % 1017,4 hPa 0,0 l/m² 0 min 42 W/m² 3,2 km/h (1 Bft) 98,00 %
02.04.2026 07:52 2,3 °C 2,2 °C -1,1 °C 88 % 1017,4 hPa 0,0 l/m² 2 min 56 W/m² 3,2 km/h (1 Bft) 95,65 %
02.04.2026 07:54 2,3 °C 2,2 °C -1,1 °C 88 % 1017,4 hPa 0,0 l/m² 2 min 60 W/m² 3,2 km/h (1 Bft) 97,87 %
02.04.2026 07:56 2,4 °C 2,8 °C -0,6 °C 88 % 1017,5 hPa 0,0 l/m² 0 min 50 W/m² 6,4 km/h (2 Bft) 97,87 %
02.04.2026 07:58 2,4 °C 2,8 °C -0,6 °C 88 % 1017,4 hPa 0,0 l/m² 0 min 37 W/m² 6,4 km/h (2 Bft) 95,74 %
02.04.2026 08:00 2,4 °C 2,8 °C -0,6 °C 88 % 1017,6 hPa 0,0 l/m² 0 min 30 W/m² 3,2 km/h (1 Bft) 97,44 %
02.04.2026 08:02 2,5 °C 2,8 °C -0,6 °C 88 % 1017,5 hPa 0,0 l/m² 0 min 36 W/m² 6,4 km/h (2 Bft) 97,87 %
02.04.2026 08:04 2,6 °C 2,8 °C -0,6 °C 88 % 1017,5 hPa 0,0 l/m² 0 min 51 W/m² 6,4 km/h (2 Bft) 95,74 %
02.04.2026 08:06 2,6 °C 2,8 °C -0,6 °C 88 % 1017,5 hPa 0,0 l/m² 0 min 55 W/m² 6,4 km/h (2 Bft) 98,28 %
02.04.2026 08:08 2,6 °C 2,8 °C -0,6 °C 88 % 1017,5 hPa 0,0 l/m² 0 min 48 W/m² 6,4 km/h (2 Bft) 97,14 %
02.04.2026 08:10 2,6 °C 2,8 °C -0,6 °C 88 % 1017,5 hPa 0,0 l/m² 0 min 43 W/m² 9,7 km/h (2 Bft) 97,87 %
02.04.2026 08:12 2,7 °C 2,8 °C -0,6 °C 89 % 1017,5 hPa 0,0 l/m² 0 min 40 W/m² 6,4 km/h (2 Bft) 97,87 %
02.04.2026 08:14 2,7 °C 2,8 °C -0,6 °C 89 % 1017,6 hPa 0,0 l/m² 0 min 46 W/m² 3,2 km/h (1 Bft) 97,87 %
02.04.2026 08:16 2,7 °C 2,8 °C -0,6 °C 89 % 1017,6 hPa 0,0 l/m² 0 min 53 W/m² 6,4 km/h (2 Bft) 97,87 %
02.04.2026 08:18 2,8 °C 2,8 °C -0,6 °C 89 % 1017,6 hPa 0,0 l/m² 0 min 53 W/m² 9,7 km/h (2 Bft) 97,87 %
02.04.2026 08:20 2,8 °C 3,3 °C -0,6 °C 89 % 1017,6 hPa 0,0 l/m² 0 min 51 W/m² 0,0 km/h (0 Bft) 50,00 %
02.04.2026 08:22 2,8 °C 3,3 °C 0,0 °C 89 % 1017,5 hPa 0,0 l/m² 0 min 68 W/m² 6,4 km/h (2 Bft) 97,87 %
02.04.2026 08:27 2,9 °C 3,3 °C 0,0 °C 89 % 1017,5 hPa 0,0 l/m² 0 min 68 W/m² 9,7 km/h (2 Bft) 98,57 %
02.04.2026 08:28 3,0 °C 3,3 °C 0,0 °C 89 % 1017,5 hPa 0,0 l/m² 0 min 58 W/m² 6,4 km/h (2 Bft) 100,00 %
02.04.2026 08:30 3,1 °C 3,3 °C 0,0 °C 89 % 1017,5 hPa 0,0 l/m² 0 min 71 W/m² 3,2 km/h (1 Bft) 97,37 %
02.04.2026 08:32 3,1 °C 3,9 °C 0,0 °C 89 % 1017,5 hPa 0,0 l/m² 0 min 95 W/m² 6,4 km/h (2 Bft) 96,23 %
02.04.2026 08:34 3,2 °C 3,9 °C 0,0 °C 89 % 1017,5 hPa 0,0 l/m² 0 min 98 W/m² 12,9 km/h (3 Bft) 97,87 %
02.04.2026 08:36 3,2 °C 3,9 °C 0,0 °C 89 % 1017,6 hPa 0,0 l/m² 0 min 74 W/m² 6,4 km/h (2 Bft) 96,00 %
02.04.2026 08:38 3,3 °C 3,9 °C 0,6 °C 89 % 1017,6 hPa 0,0 l/m² 0 min 74 W/m² 3,2 km/h (1 Bft) 95,74 %
02.04.2026 08:40 3,3 °C 3,9 °C 0,6 °C 89 % 1017,5 hPa 0,0 l/m² 0 min 75 W/m² 3,2 km/h (1 Bft) 97,87 %
02.04.2026 08:42 3,3 °C 3,9 °C 0,6 °C 89 % 1017,5 hPa 0,0 l/m² 0 min 76 W/m² 6,4 km/h (2 Bft) 95,74 %
02.04.2026 08:44 3,4 °C 3,9 °C 0,6 °C 89 % 1017,5 hPa 0,0 l/m² 0 min 81 W/m² 6,4 km/h (2 Bft) 94,29 %
02.04.2026 08:46 3,5 °C 3,9 °C 0,6 °C 89 % 1017,5 hPa 0,0 l/m² 0 min 88 W/m² 6,4 km/h (2 Bft) 92,00 %
02.04.2026 08:48 3,6 °C 4,4 °C 0,6 °C 89 % 1017,4 hPa 0,0 l/m² 0 min 98 W/m² 12,9 km/h (3 Bft) 95,74 %
02.04.2026 08:50 3,6 °C 4,4 °C 0,6 °C 89 % 1017,5 hPa 0,0 l/m² 0 min 97 W/m² 9,7 km/h (2 Bft) 95,74 %
02.04.2026 08:52 3,7 °C 4,4 °C 0,6 °C 89 % 1017,5 hPa 0,0 l/m² 0 min 88 W/m² 6,4 km/h (2 Bft) 95,74 %
02.04.2026 08:54 3,8 °C 4,4 °C 0,6 °C 89 % 1017,5 hPa 0,0 l/m² 0 min 79 W/m² 6,4 km/h (2 Bft) 94,34 %
02.04.2026 08:56 3,8 °C 4,4 °C 0,6 °C 89 % 1017,5 hPa 0,0 l/m² 0 min 77 W/m² 6,4 km/h (2 Bft) 95,74 %
02.04.2026 08:58 3,9 °C 4,4 °C 0,6 °C 89 % 1017,6 hPa 0,0 l/m² 0 min 76 W/m² 16,1 km/h (3 Bft) 95,74 %
02.04.2026 09:00 3,9 °C 4,4 °C 0,6 °C 88 % 1017,5 hPa 0,0 l/m² 0 min 74 W/m² 3,2 km/h (1 Bft) 95,74 %
02.04.2026 09:02 4,1 °C 5,0 °C 1,1 °C 88 % 1017,6 hPa 0,0 l/m² 0 min 77 W/m² 12,9 km/h (3 Bft) 92,11 %
02.04.2026 09:04 4,1 °C 5,0 °C 1,1 °C 88 % 1017,5 hPa 0,0 l/m² 0 min 79 W/m² 6,4 km/h (2 Bft) 96,00 %
02.04.2026 09:06 4,2 °C 5,0 °C 1,1 °C 88 % 1017,5 hPa 0,0 l/m² 0 min 78 W/m² 12,9 km/h (3 Bft) 95,74 %
02.04.2026 09:08 4,2 °C 5,0 °C 1,1 °C 88 % 1017,5 hPa 0,0 l/m² 0 min 81 W/m² 12,9 km/h (3 Bft) 95,74 %
02.04.2026 09:10 4,3 °C 5,0 °C 1,1 °C 88 % 1017,5 hPa 0,0 l/m² 0 min 86 W/m² 6,4 km/h (2 Bft) 96,00 %
02.04.2026 09:12 4,4 °C 5,0 °C 1,1 °C 88 % 1017,4 hPa 0,0 l/m² 0 min 112 W/m² 9,7 km/h (2 Bft) 98,00 %
02.04.2026 09:14 4,5 °C 5,6 °C 1,1 °C 88 % 1017,5 hPa 0,0 l/m² 2 min 256 W/m² 9,7 km/h (2 Bft) 100,00 %
02.04.2026 09:16 4,6 °C 5,6 °C 1,7 °C 88 % 1017,5 hPa 0,0 l/m² 2 min 335 W/m² 9,7 km/h (2 Bft) 97,37 %
02.04.2026 09:18 4,7 °C 6,1 °C 1,7 °C 87 % 1017,5 hPa 0,0 l/m² 2 min 340 W/m² 9,7 km/h (2 Bft) 100,00 %
02.04.2026 09:20 4,8 °C 6,1 °C 1,7 °C 88 % 1017,5 hPa 0,0 l/m² 2 min 371 W/m² 9,7 km/h (2 Bft) 100,00 %
02.04.2026 09:22 4,9 °C 6,7 °C 2,2 °C 88 % 1017,4 hPa 0,0 l/m² 2 min 385 W/m² 6,4 km/h (2 Bft) 100,00 %
02.04.2026 09:24 5,1 °C 6,7 °C 2,2 °C 88 % 1017,4 hPa 0,0 l/m² 2 min 409 W/m² 6,4 km/h (2 Bft) 100,00 %
02.04.2026 09:26 5,2 °C 7,8 °C 2,2 °C 88 % 1017,4 hPa 0,0 l/m² 2 min 419 W/m² 9,7 km/h (2 Bft) 100,00 %
02.04.2026 09:28 5,3 °C 8,3 °C 2,8 °C 88 % 1017,4 hPa 0,0 l/m² 2 min 370 W/m² 12,9 km/h (3 Bft) 97,87 %
02.04.2026 09:30 5,6 °C 9,4 °C 2,8 °C 88 % 1017,4 hPa 0,0 l/m² 2 min 338 W/m² 6,4 km/h (2 Bft) 97,87 %
02.04.2026 09:32 5,7 °C 9,4 °C 3,3 °C 88 % 1017,4 hPa 0,0 l/m² 2 min 262 W/m² 6,4 km/h (2 Bft) 100,00 %
02.04.2026 09:34 5,9 °C 9,4 °C 3,3 °C 87 % 1017,4 hPa 0,0 l/m² 2 min 376 W/m² 16,1 km/h (3 Bft) 100,00 %
02.04.2026 09:36 6,1 °C 9,4 °C 3,3 °C 87 % 1017,4 hPa 0,0 l/m² 2 min 301 W/m² 9,7 km/h (2 Bft) 100,00 %
02.04.2026 09:38 6,3 °C 8,9 °C 3,3 °C 86 % 1017,4 hPa 0,0 l/m² 2 min 248 W/m² 16,1 km/h (3 Bft) 100,00 %
02.04.2026 09:40 6,4 °C 8,9 °C 3,3 °C 86 % 1017,5 hPa 0,0 l/m² 2 min 209 W/m² 12,9 km/h (3 Bft) 100,00 %
02.04.2026 09:42 6,6 °C 8,3 °C 3,3 °C 85 % 1017,5 hPa 0,0 l/m² 2 min 212 W/m² 12,9 km/h (3 Bft) 100,00 %
02.04.2026 09:44 6,7 °C 8,9 °C 3,9 °C 85 % 1017,5 hPa 0,0 l/m² 2 min 230 W/m² 6,4 km/h (2 Bft) 100,00 %
02.04.2026 09:46 6,8 °C 8,9 °C 3,9 °C 85 % 1017,5 hPa 0,0 l/m² 2 min 226 W/m² 6,4 km/h (2 Bft) 98,00 %
02.04.2026 09:48 6,9 °C 8,9 °C 3,9 °C 84 % 1017,5 hPa 0,0 l/m² 2 min 235 W/m² 9,7 km/h (2 Bft) 100,00 %
02.04.2026 09:50 7,0 °C 8,9 °C 3,9 °C 84 % 1017,5 hPa 0,0 l/m² 2 min 223 W/m² 6,4 km/h (2 Bft) 100,00 %
02.04.2026 09:52 7,1 °C 8,3 °C 3,9 °C 84 % 1017,6 hPa 0,0 l/m² 0 min 175 W/m² 9,7 km/h (2 Bft) 100,00 %
02.04.2026 09:54 7,2 °C 8,3 °C 3,9 °C 83 % 1017,6 hPa 0,0 l/m² 0 min 149 W/m² 6,4 km/h (2 Bft) 97,87 %
02.04.2026 09:56 7,3 °C 8,3 °C 3,9 °C 83 % 1017,6 hPa 0,0 l/m² 0 min 144 W/m² 6,4 km/h (2 Bft) 100,00 %
02.04.2026 09:58 7,3 °C 8,3 °C 3,9 °C 83 % 1017,6 hPa 0,0 l/m² 0 min 140 W/m² 3,2 km/h (1 Bft) 100,00 %
02.04.2026 10:00 7,4 °C 8,3 °C 3,9 °C 82 % 1017,6 hPa 0,0 l/m² 0 min 134 W/m² 9,7 km/h (2 Bft) 100,00 %
02.04.2026 10:02 7,5 °C 7,8 °C 3,9 °C 82 % 1017,6 hPa 0,0 l/m² 0 min 117 W/m² 6,4 km/h (2 Bft) 97,87 %
02.04.2026 10:04 7,6 °C 7,8 °C 3,9 °C 82 % 1017,6 hPa 0,0 l/m² 0 min 104 W/m² 6,4 km/h (2 Bft) 95,74 %
02.04.2026 10:06 7,6 °C 7,8 °C 3,9 °C 82 % 1017,6 hPa 0,0 l/m² 0 min 97 W/m² 12,9 km/h (3 Bft) 98,00 %
02.04.2026 10:08 7,7 °C 7,8 °C 3,9 °C 82 % 1017,6 hPa 0,0 l/m² 0 min 98 W/m² 6,4 km/h (2 Bft) 97,87 %
02.04.2026 10:10 7,7 °C 7,8 °C 3,9 °C 82 % 1017,6 hPa 0,0 l/m² 0 min 93 W/m² 3,2 km/h (1 Bft) 98,00 %
02.04.2026 10:12 7,8 °C 7,8 °C 3,9 °C 82 % 1017,7 hPa 0,0 l/m² 0 min 93 W/m² 12,9 km/h (3 Bft) 97,87 %
02.04.2026 10:14 7,8 °C 7,8 °C 3,9 °C 82 % 1017,6 hPa 0,0 l/m² 0 min 100 W/m² 9,7 km/h (2 Bft) 95,74 %
02.04.2026 10:16 7,8 °C 7,8 °C 3,9 °C 82 % 1017,6 hPa 0,0 l/m² 0 min 95 W/m² 6,4 km/h (2 Bft) 97,87 %
02.04.2026 10:18 7,9 °C 7,8 °C 3,9 °C 82 % 1017,6 hPa 0,0 l/m² 0 min 94 W/m² 6,4 km/h (2 Bft) 97,37 %
02.04.2026 10:20 7,9 °C 7,8 °C 3,9 °C 82 % 1017,6 hPa 0,0 l/m² 0 min 87 W/m² 12,9 km/h (3 Bft) 96,00 %
02.04.2026 10:22 7,9 °C 7,8 °C 3,9 °C 82 % 1017,6 hPa 0,0 l/m² 0 min 84 W/m² 6,4 km/h (2 Bft) 98,00 %
02.04.2026 10:24 7,9 °C 7,8 °C 3,9 °C 81 % 1017,7 hPa 0,0 l/m² 0 min 84 W/m² 3,2 km/h (1 Bft) 97,87 %
02.04.2026 10:26 8,0 °C 7,8 °C 3,9 °C 81 % 1017,6 hPa 0,0 l/m² 0 min 75 W/m² 6,4 km/h (2 Bft) 97,37 %
02.04.2026 10:28 8,0 °C 7,8 °C 3,9 °C 81 % 1017,7 hPa 0,0 l/m² 0 min 77 W/m² 6,4 km/h (2 Bft) 97,87 %
02.04.2026 10:30 8,1 °C 7,8 °C 3,9 °C 82 % 1017,7 hPa 0,0 l/m² 0 min 73 W/m² 3,2 km/h (1 Bft) 98,00 %
02.04.2026 10:32 8,1 °C 7,8 °C 3,9 °C 82 % 1017,7 hPa 0,0 l/m² 0 min 69 W/m² 6,4 km/h (2 Bft) 97,96 %
02.04.2026 10:34 8,1 °C 7,8 °C 3,9 °C 82 % 1017,7 hPa 0,0 l/m² 0 min 70 W/m² 3,2 km/h (1 Bft) 97,87 %
02.04.2026 10:36 8,1 °C 7,8 °C 3,9 °C 82 % 1017,6 hPa 0,0 l/m² 0 min 74 W/m² 6,4 km/h (2 Bft) 96,00 %
02.04.2026 10:38 8,2 °C 8,3 °C 3,9 °C 82 % 1017,6 hPa 0,0 l/m² 0 min 75 W/m² 3,2 km/h (1 Bft) 100,00 %
02.04.2026 10:40 8,2 °C 8,3 °C 3,9 °C 82 % 1017,6 hPa 0,0 l/m² 0 min 73 W/m² 3,2 km/h (1 Bft) 97,87 %
02.04.2026 10:42 8,2 °C 8,3 °C 3,9 °C 82 % 1017,7 hPa 0,0 l/m² 0 min 82 W/m² 6,4 km/h (2 Bft) 100,00 %
02.04.2026 10:44 8,3 °C 8,3 °C 4,4 °C 82 % 1017,7 hPa 0,0 l/m² 0 min 79 W/m² 12,9 km/h (3 Bft) 100,00 %
02.04.2026 10:46 8,3 °C 8,3 °C 4,4 °C 82 % 1017,7 hPa 0,0 l/m² 0 min 73 W/m² 6,4 km/h (2 Bft) 100,00 %
02.04.2026 10:48 8,4 °C 8,3 °C 4,4 °C 83 % 1017,7 hPa 0,0 l/m² 0 min 81 W/m² 9,7 km/h (2 Bft) 100,00 %
02.04.2026 10:50 8,4 °C 8,3 °C 4,4 °C 83 % 1017,7 hPa 0,0 l/m² 0 min 87 W/m² 19,3 km/h (3 Bft) 100,00 %
02.04.2026 10:52 8,5 °C 8,3 °C 4,4 °C 83 % 1017,7 hPa 0,0 l/m² 0 min 76 W/m² 6,4 km/h (2 Bft) 95,74 %
02.04.2026 10:54 8,6 °C 8,3 °C 4,4 °C 84 % 1017,7 hPa 0,0 l/m² 0 min 72 W/m² 9,7 km/h (2 Bft) 100,00 %
02.04.2026 10:56 8,6 °C 8,3 °C 4,4 °C 84 % 1017,7 hPa 0,0 l/m² 0 min 71 W/m² 3,2 km/h (1 Bft) 100,00 %
02.04.2026 10:58 8,7 °C 8,3 °C 4,4 °C 84 % 1017,7 hPa 0,0 l/m² 0 min 72 W/m² 6,4 km/h (2 Bft) 97,87 %
02.04.2026 11:00 8,7 °C 8,3 °C 4,4 °C 85 % 1017,7 hPa 0,0 l/m² 0 min 66 W/m² 6,4 km/h (2 Bft) 97,87 %
02.04.2026 11:02 8,7 °C 8,3 °C 4,4 °C 85 % 1017,7 hPa 0,0 l/m² 0 min 61 W/m² 6,4 km/h (2 Bft) 97,87 %
02.04.2026 11:04 8,8 °C 8,3 °C 4,4 °C 85 % 1017,7 hPa 0,0 l/m² 0 min 47 W/m² 3,2 km/h (1 Bft) 97,87 %
02.04.2026 11:06 8,8 °C 8,3 °C 4,4 °C 85 % 1017,7 hPa 0,0 l/m² 0 min 40 W/m² 6,4 km/h (2 Bft) 97,87 %
02.04.2026 11:08 8,8 °C 8,3 °C 4,4 °C 85 % 1017,8 hPa 0,0 l/m² 0 min 45 W/m² 6,4 km/h (2 Bft) 97,37 %
02.04.2026 11:10 8,8 °C 8,3 °C 4,4 °C 86 % 1017,7 hPa 0,0 l/m² 0 min 44 W/m² 6,4 km/h (2 Bft) 97,87 %
02.04.2026 11:12 8,8 °C 8,3 °C 4,4 °C 86 % 1017,8 hPa 0,0 l/m² 0 min 40 W/m² 9,7 km/h (2 Bft) 97,87 %
02.04.2026 11:14 8,8 °C 8,3 °C 4,4 °C 86 % 1017,8 hPa 0,0 l/m² 0 min 40 W/m² 12,9 km/h (3 Bft) 95,74 %
02.04.2026 11:16 8,8 °C 8,3 °C 4,4 °C 86 % 1017,8 hPa 0,0 l/m² 0 min 43 W/m² 6,4 km/h (2 Bft) 97,87 %
02.04.2026 11:18 8,8 °C 8,3 °C 4,4 °C 86 % 1017,8 hPa 0,0 l/m² 0 min 45 W/m² 6,4 km/h (2 Bft) 95,74 %
02.04.2026 11:20 8,8 °C 8,3 °C 4,4 °C 86 % 1017,8 hPa 0,0 l/m² 0 min 46 W/m² 3,2 km/h (1 Bft) 97,87 %
02.04.2026 11:22 8,8 °C 8,3 °C 4,4 °C 86 % 1017,9 hPa 0,0 l/m² 0 min 46 W/m² 0,0 km/h (0 Bft) 97,87 %
02.04.2026 11:24 8,8 °C 8,3 °C 4,4 °C 86 % 1017,9 hPa 0,0 l/m² 0 min 56 W/m² 0,0 km/h (0 Bft) 93,62 %
02.04.2026 11:26 8,8 °C 8,3 °C 4,4 °C 86 % 1017,9 hPa 0,0 l/m² 0 min 76 W/m² 3,2 km/h (1 Bft) 95,74 %
02.04.2026 11:28 8,8 °C 8,3 °C 4,4 °C 87 % 1017,9 hPa 0,0 l/m² 0 min 83 W/m² 3,2 km/h (1 Bft) 97,87 %
02.04.2026 11:30 8,8 °C 8,3 °C 4,4 °C 87 % 1017,9 hPa 0,0 l/m² 0 min 82 W/m² 9,7 km/h (2 Bft) 98,15 %
02.04.2026 11:32 8,8 °C 8,3 °C 4,4 °C 87 % 1017,9 hPa 0,0 l/m² 0 min 90 W/m² 6,4 km/h (2 Bft) 95,74 %
02.04.2026 11:34 8,8 °C 8,3 °C 4,4 °C 87 % 1017,9 hPa 0,0 l/m² 0 min 98 W/m² 0,0 km/h (0 Bft) 97,62 %
02.04.2026 11:36 8,8 °C 8,9 °C 4,4 °C 87 % 1017,8 hPa 0,0 l/m² 0 min 95 W/m² 6,4 km/h (2 Bft) 100,00 %
02.04.2026 11:38 8,8 °C 8,9 °C 4,4 °C 87 % 1017,9 hPa 0,0 l/m² 0 min 106 W/m² 3,2 km/h (1 Bft) 100,00 %
02.04.2026 11:40 8,9 °C 8,9 °C 4,4 °C 88 % 1017,8 hPa 0,0 l/m² 0 min 126 W/m² 6,4 km/h (2 Bft) 100,00 %
02.04.2026 11:42 8,9 °C 8,9 °C 4,4 °C 88 % 1017,8 hPa 0,0 l/m² 0 min 124 W/m² 6,4 km/h (2 Bft) 100,00 %
02.04.2026 11:44 8,9 °C 8,9 °C 5,0 °C 88 % 1017,8 hPa 0,0 l/m² 0 min 112 W/m² 9,7 km/h (2 Bft) 97,87 %
02.04.2026 11:46 8,9 °C 8,9 °C 5,0 °C 88 % 1017,8 hPa 0,0 l/m² 0 min 115 W/m² 0,0 km/h (0 Bft) 97,83 %
02.04.2026 11:48 9,0 °C 8,9 °C 5,0 °C 88 % 1017,8 hPa 0,0 l/m² 0 min 118 W/m² 3,2 km/h (1 Bft) 97,87 %
02.04.2026 11:50 9,0 °C 9,4 °C 5,0 °C 88 % 1017,8 hPa 0,0 l/m² 0 min 110 W/m² 3,2 km/h (1 Bft) 97,87 %
02.04.2026 11:52 9,1 °C 8,9 °C 5,0 °C 88 % 1017,8 hPa 0,0 l/m² 0 min 94 W/m² 9,7 km/h (2 Bft) 93,62 %
02.04.2026 11:54 9,1 °C 8,9 °C 5,0 °C 88 % 1017,8 hPa 0,0 l/m² 0 min 81 W/m² 6,4 km/h (2 Bft) 97,87 %
02.04.2026 11:56 9,1 °C 8,9 °C 5,0 °C 88 % 1017,8 hPa 0,0 l/m² 0 min 79 W/m² 6,4 km/h (2 Bft) 97,87 %
02.04.2026 11:58 9,1 °C 8,9 °C 5,0 °C 88 % 1017,8 hPa 0,0 l/m² 0 min 94 W/m² 3,2 km/h (1 Bft) 97,87 %
02.04.2026 12:00 9,1 °C 8,9 °C 5,0 °C 88 % 1017,8 hPa 0,0 l/m² 0 min 105 W/m² 6,4 km/h (2 Bft) 97,87 %
02.04.2026 12:02 9,1 °C 8,9 °C 5,0 °C 88 % 1017,8 hPa 0,0 l/m² 0 min 109 W/m² 6,4 km/h (2 Bft) 97,37 %
02.04.2026 12:05 9,1 °C 8,9 °C 5,0 °C 88 % 1017,8 hPa 0,0 l/m² 0 min 108 W/m² 9,7 km/h (2 Bft) 100,00 %
02.04.2026 12:10 9,1 °C 8,9 °C 5,0 °C 88 % 1017,8 hPa 0,0 l/m² 0 min 98 W/m² 12,9 km/h (3 Bft) 100,00 %
02.04.2026 12:15 9,2 °C 8,9 °C 5,0 °C 88 % 1017,9 hPa 0,0 l/m² 0 min 95 W/m² 9,7 km/h (2 Bft) 100,00 %
02.04.2026 12:20 9,2 °C 8,9 °C 5,0 °C 88 % 1017,9 hPa 0,0 l/m² 0 min 95 W/m² 9,7 km/h (2 Bft) 100,00 %
02.04.2026 12:25 9,3 °C 8,9 °C 5,0 °C 88 % 1017,9 hPa 0,0 l/m² 0 min 79 W/m² 12,9 km/h (3 Bft) 100,00 %
02.04.2026 12:30 9,3 °C 8,9 °C 5,0 °C 88 % 1017,9 hPa 0,0 l/m² 0 min 107 W/m² 19,3 km/h (3 Bft) 99,12 %
02.04.2026 12:35 9,2 °C 8,9 °C 5,0 °C 88 % 1017,8 hPa 0,0 l/m² 0 min 117 W/m² 12,9 km/h (3 Bft) 99,12 %
02.04.2026 12:40 9,2 °C 9,4 °C 5,0 °C 88 % 1017,8 hPa 0,0 l/m² 0 min 112 W/m² 12,9 km/h (3 Bft) 98,25 %
02.04.2026 12:45 9,3 °C 9,4 °C 5,0 °C 88 % 1017,8 hPa 0,0 l/m² 0 min 101 W/m² 12,9 km/h (3 Bft) 100,00 %
02.04.2026 12:50 9,3 °C 9,4 °C 5,0 °C 88 % 1017,7 hPa 0,0 l/m² 0 min 120 W/m² 19,3 km/h (3 Bft) 100,00 %
02.04.2026 12:55 9,3 °C 9,4 °C 5,6 °C 88 % 1017,8 hPa 0,0 l/m² 0 min 135 W/m² 16,1 km/h (3 Bft) 99,12 %
02.04.2026 13:00 9,4 °C 10,0 °C 5,6 °C 89 % 1017,7 hPa 0,0 l/m² 0 min 171 W/m² 9,7 km/h (2 Bft) 100,00 %
02.04.2026 13:05 9,6 °C 10,0 °C 5,6 °C 89 % 1017,6 hPa 0,0 l/m² 0 min 168 W/m² 9,7 km/h (2 Bft) 98,25 %
02.04.2026 13:10 9,6 °C 10,0 °C 5,6 °C 88 % 1017,6 hPa 0,0 l/m² 0 min 137 W/m² 16,1 km/h (3 Bft) 99,12 %
02.04.2026 13:15 9,6 °C 10,0 °C 5,6 °C 88 % 1017,5 hPa 0,0 l/m² 0 min 131 W/m² 12,9 km/h (3 Bft) 99,12 %
02.04.2026 13:20 9,6 °C 10,0 °C 5,6 °C 88 % 1017,5 hPa 0,0 l/m² 0 min 134 W/m² 9,7 km/h (2 Bft) 100,00 %
02.04.2026 13:25 9,6 °C 9,4 °C 5,6 °C 87 % 1017,5 hPa 0,0 l/m² 0 min 136 W/m² 19,3 km/h (3 Bft) 100,00 %
02.04.2026 13:30 9,6 °C 9,4 °C 5,6 °C 88 % 1017,6 hPa 0,0 l/m² 0 min 133 W/m² 12,9 km/h (3 Bft) 100,00 %
02.04.2026 13:35 9,6 °C 10,0 °C 5,6 °C 88 % 1017,6 hPa 0,0 l/m² 0 min 146 W/m² 6,4 km/h (2 Bft) 100,00 %
02.04.2026 13:40 9,7 °C 10,0 °C 5,6 °C 88 % 1017,6 hPa 0,0 l/m² 0 min 158 W/m² 6,4 km/h (2 Bft) 100,00 %
02.04.2026 13:45 9,7 °C 10,0 °C 5,6 °C 88 % 1017,6 hPa 0,0 l/m² 0 min 174 W/m² 16,1 km/h (3 Bft) 100,00 %
02.04.2026 13:50 9,8 °C 10,6 °C 6,1 °C 87 % 1017,6 hPa 0,0 l/m² 0 min 238 W/m² 12,9 km/h (3 Bft) 100,00 %
02.04.2026 13:55 9,9 °C 11,1 °C 6,7 °C 88 % 1017,6 hPa 0,0 l/m² 0 min 268 W/m² 12,9 km/h (3 Bft) 100,00 %
02.04.2026 14:00 10,1 °C 11,1 °C 6,7 °C 87 % 1017,6 hPa 0,0 l/m² 0 min 253 W/m² 9,7 km/h (2 Bft) 100,00 %
02.04.2026 14:05 10,2 °C 11,1 °C 6,7 °C 87 % 1017,6 hPa 0,0 l/m² 0 min 231 W/m² 9,7 km/h (2 Bft) 100,00 %
02.04.2026 14:10 10,3 °C 11,1 °C 6,7 °C 86 % 1017,6 hPa 0,0 l/m² 0 min 198 W/m² 9,7 km/h (2 Bft) 100,00 %
02.04.2026 14:15 10,3 °C 11,1 °C 6,7 °C 86 % 1017,6 hPa 0,0 l/m² 0 min 216 W/m² 12,9 km/h (3 Bft) 100,00 %
02.04.2026 14:20 10,4 °C 11,1 °C 6,7 °C 86 % 1017,6 hPa 0,0 l/m² 0 min 217 W/m² 6,4 km/h (2 Bft) 100,00 %
02.04.2026 14:25 10,5 °C 11,1 °C 6,7 °C 86 % 1017,7 hPa 0,0 l/m² 0 min 197 W/m² 12,9 km/h (3 Bft) 100,00 %
02.04.2026 14:30 10,6 °C 10,6 °C 6,7 °C 85 % 1017,6 hPa 0,0 l/m² 0 min 175 W/m² 19,3 km/h (3 Bft) 100,00 %
02.04.2026 14:35 10,6 °C 11,1 °C 6,7 °C 85 % 1017,6 hPa 0,0 l/m² 0 min 192 W/m² 12,9 km/h (3 Bft) 100,00 %
02.04.2026 14:40 10,6 °C 11,1 °C 6,7 °C 85 % 1017,6 hPa 0,0 l/m² 0 min 242 W/m² 12,9 km/h (3 Bft) 100,00 %
02.04.2026 14:45 10,7 °C 12,2 °C 7,2 °C 85 % 1017,6 hPa 0,0 l/m² 0 min 306 W/m² 9,7 km/h (2 Bft) 100,00 %
02.04.2026 14:50 10,9 °C 12,2 °C 7,8 °C 85 % 1017,5 hPa 0,0 l/m² 0 min 305 W/m² 12,9 km/h (3 Bft) 100,00 %
02.04.2026 14:55 11,1 °C 12,8 °C 7,8 °C 85 % 1017,5 hPa 0,0 l/m² 0 min 308 W/m² 9,7 km/h (2 Bft) 100,00 %
02.04.2026 15:00 11,2 °C 12,8 °C 7,8 °C 84 % 1017,3 hPa 0,0 l/m² 0 min 290 W/m² 12,9 km/h (3 Bft) 100,00 %
02.04.2026 15:05 11,3 °C 12,8 °C 7,8 °C 83 % 1017,3 hPa 0,0 l/m² 0 min 291 W/m² 12,9 km/h (3 Bft) 100,00 %
02.04.2026 15:10 11,4 °C 12,8 °C 8,3 °C 83 % 1017,2 hPa 0,0 l/m² 0 min 265 W/m² 6,4 km/h (2 Bft) 99,12 %
02.04.2026 15:15 11,5 °C 12,2 °C 7,8 °C 83 % 1017,2 hPa 0,0 l/m² 0 min 206 W/m² 12,9 km/h (3 Bft) 99,12 %
02.04.2026 15:20 11,5 °C 11,7 °C 7,8 °C 82 % 1017,2 hPa 0,0 l/m² 0 min 176 W/m² 6,4 km/h (2 Bft) 96,49 %
02.04.2026 15:25 11,5 °C 11,7 °C 7,2 °C 82 % 1017,2 hPa 0,0 l/m² 0 min 181 W/m² 16,1 km/h (3 Bft) 94,74 %
02.04.2026 15:30 11,4 °C 11,7 °C 7,8 °C 82 % 1017,2 hPa 0,0 l/m² 0 min 184 W/m² 12,9 km/h (3 Bft) 98,25 %
02.04.2026 15:35 11,4 °C 11,7 °C 7,2 °C 82 % 1017,1 hPa 0,0 l/m² 0 min 144 W/m² 12,9 km/h (3 Bft) 94,74 %
02.04.2026 15:40 11,4 °C 11,7 °C 7,2 °C 83 % 1017,1 hPa 0,0 l/m² 0 min 132 W/m² 6,4 km/h (2 Bft) 96,49 %
02.04.2026 15:44 11,5 °C 11,7 °C 7,2 °C 83 % 1017,1 hPa 0,0 l/m² 0 min 130 W/m² 3,2 km/h (1 Bft) 98,00 %
02.04.2026 15:46 11,6 °C 11,7 °C 7,2 °C 83 % 1017,1 hPa 0,0 l/m² 0 min 135 W/m² 6,4 km/h (2 Bft) 95,74 %
02.04.2026 15:48 11,5 °C 11,7 °C 7,2 °C 83 % 1017,1 hPa 0,0 l/m² 0 min 141 W/m² 12,9 km/h (3 Bft) 95,24 %
02.04.2026 15:50 11,5 °C 11,7 °C 7,2 °C 83 % 1017,0 hPa 0,0 l/m² 0 min 128 W/m² 6,4 km/h (2 Bft) 95,74 %
02.04.2026 15:52 11,4 °C 11,1 °C 7,2 °C 83 % 1017,0 hPa 0,0 l/m² 0 min 120 W/m² 9,7 km/h (2 Bft) 97,96 %
02.04.2026 15:54 11,4 °C 11,1 °C 7,2 °C 83 % 1017,0 hPa 0,0 l/m² 0 min 113 W/m² 6,4 km/h (2 Bft) 98,00 %
02.04.2026 15:56 11,4 °C 11,7 °C 7,2 °C 83 % 1017,0 hPa 0,0 l/m² 0 min 105 W/m² 3,2 km/h (1 Bft) 97,87 %
02.04.2026 15:58 11,4 °C 11,7 °C 7,2 °C 83 % 1016,9 hPa 0,0 l/m² 0 min 100 W/m² 3,2 km/h (1 Bft) 97,37 %
02.04.2026 16:00 11,4 °C 11,1 °C 7,2 °C 83 % 1016,9 hPa 0,0 l/m² 0 min 96 W/m² 3,2 km/h (1 Bft) 98,18 %
02.04.2026 16:02 11,4 °C 11,1 °C 7,2 °C 83 % 1016,9 hPa 0,0 l/m² 0 min 103 W/m² 12,9 km/h (3 Bft) 97,87 %
02.04.2026 16:04 11,4 °C 11,7 °C 7,2 °C 83 % 1016,9 hPa 0,0 l/m² 0 min 119 W/m² 3,2 km/h (1 Bft) 95,92 %
02.04.2026 16:06 11,4 °C 11,7 °C 7,2 °C 83 % 1016,9 hPa 0,0 l/m² 0 min 134 W/m² 6,4 km/h (2 Bft) 95,74 %
02.04.2026 16:08 11,4 °C 11,7 °C 7,2 °C 83 % 1016,9 hPa 0,0 l/m² 0 min 136 W/m² 6,4 km/h (2 Bft) 97,87 %
02.04.2026 16:10 11,4 °C 11,7 °C 7,2 °C 83 % 1016,9 hPa 0,0 l/m² 0 min 130 W/m² 12,9 km/h (3 Bft) 97,87 %
02.04.2026 16:12 11,4 °C 11,7 °C 7,2 °C 84 % 1016,8 hPa 0,0 l/m² 0 min 132 W/m² 9,7 km/h (2 Bft) 97,37 %
02.04.2026 16:14 11,4 °C 11,7 °C 7,2 °C 84 % 1016,8 hPa 0,0 l/m² 0 min 136 W/m² 9,7 km/h (2 Bft) 97,87 %
02.04.2026 16:16 11,4 °C 11,7 °C 7,2 °C 84 % 1016,8 hPa 0,0 l/m² 0 min 124 W/m² 6,4 km/h (2 Bft) 98,00 %
02.04.2026 16:18 11,4 °C 11,7 °C 7,2 °C 84 % 1016,9 hPa 0,0 l/m² 0 min 105 W/m² 6,4 km/h (2 Bft) 97,87 %
02.04.2026 16:20 11,4 °C 11,7 °C 7,2 °C 84 % 1016,9 hPa 0,0 l/m² 0 min 87 W/m² 9,7 km/h (2 Bft) 98,00 %
02.04.2026 16:22 11,4 °C 11,1 °C 7,2 °C 84 % 1016,8 hPa 0,0 l/m² 0 min 62 W/m² 3,2 km/h (1 Bft) 97,87 %
02.04.2026 16:24 11,4 °C 11,1 °C 7,2 °C 84 % 1016,9 hPa 0,0 l/m² 0 min 48 W/m² 9,7 km/h (2 Bft) 100,00 %
02.04.2026 16:26 11,4 °C 11,1 °C 7,2 °C 84 % 1016,9 hPa 0,0 l/m² 0 min 42 W/m² 6,4 km/h (2 Bft) 100,00 %
02.04.2026 16:28 11,4 °C 10,6 °C 7,2 °C 84 % 1016,9 hPa 0,0 l/m² 0 min 38 W/m² 6,4 km/h (2 Bft) 100,00 %
02.04.2026 16:30 11,3 °C 10,6 °C 6,7 °C 84 % 1016,9 hPa 0,0 l/m² 0 min 37 W/m² 16,1 km/h (3 Bft) 100,00 %
02.04.2026 16:32 11,3 °C 10,6 °C 6,7 °C 84 % 1016,8 hPa 0,0 l/m² 0 min 38 W/m² 6,4 km/h (2 Bft) 100,00 %
02.04.2026 16:34 11,3 °C 10,6 °C 6,7 °C 84 % 1016,8 hPa 0,0 l/m² 0 min 40 W/m² 6,4 km/h (2 Bft) 100,00 %
02.04.2026 16:36 11,3 °C 10,6 °C 6,7 °C 84 % 1016,8 hPa 0,0 l/m² 0 min 40 W/m² 3,2 km/h (1 Bft) 100,00 %
02.04.2026 16:38 11,3 °C 10,6 °C 6,1 °C 84 % 1016,8 hPa 0,2 l/m² 0 min 39 W/m² 3,2 km/h (1 Bft) 100,00 %
02.04.2026 16:40 11,3 °C 10,0 °C 6,1 °C 85 % 1016,8 hPa 0,0 l/m² 0 min 34 W/m² 3,2 km/h (1 Bft) 100,00 %
02.04.2026 16:42 11,3 °C 10,0 °C 5,6 °C 85 % 1016,8 hPa 0,0 l/m² 0 min 32 W/m² 3,2 km/h (1 Bft) 100,00 %
02.04.2026 16:44 11,2 °C 10,0 °C 5,6 °C 86 % 1016,8 hPa 0,2 l/m² 0 min 32 W/m² 3,2 km/h (1 Bft) 100,00 %
02.04.2026 16:46 11,2 °C 10,0 °C 5,6 °C 86 % 1016,8 hPa 0,0 l/m² 0 min 29 W/m² 0,0 km/h (0 Bft) 97,87 %
02.04.2026 16:48 11,2 °C 10,0 °C 5,6 °C 86 % 1016,8 hPa 0,2 l/m² 0 min 25 W/m² 0,0 km/h (0 Bft) 100,00 %
02.04.2026 16:50 11,2 °C 10,0 °C 5,6 °C 87 % 1016,8 hPa 0,0 l/m² 0 min 24 W/m² 0,0 km/h (0 Bft) 100,00 %
02.04.2026 16:52 11,2 °C 9,4 °C 5,0 °C 87 % 1016,8 hPa 0,0 l/m² 0 min 18 W/m² 3,2 km/h (1 Bft) 100,00 %
02.04.2026 16:54 11,1 °C 9,4 °C 5,0 °C 87 % 1016,9 hPa 0,0 l/m² 0 min 17 W/m² 3,2 km/h (1 Bft) 100,00 %
02.04.2026 16:56 11,1 °C 9,4 °C 5,0 °C 88 % 1016,8 hPa 0,0 l/m² 0 min 21 W/m² 0,0 km/h (0 Bft) 100,00 %
02.04.2026 16:58 11,1 °C 9,4 °C 5,0 °C 88 % 1016,8 hPa 0,0 l/m² 0 min 26 W/m² 0,0 km/h (0 Bft) 100,00 %
02.04.2026 17:00 11,0 °C 9,4 °C 5,0 °C 88 % 1016,8 hPa 0,0 l/m² 0 min 33 W/m² 3,2 km/h (1 Bft) 97,87 %
02.04.2026 17:02 10,9 °C 9,4 °C 5,0 °C 88 % 1016,9 hPa 0,2 l/m² 0 min 38 W/m² 3,2 km/h (1 Bft) 100,00 %
02.04.2026 17:04 10,9 °C 9,4 °C 5,0 °C 89 % 1016,8 hPa 0,0 l/m² 0 min 49 W/m² 3,2 km/h (1 Bft) 100,00 %
02.04.2026 17:06 10,8 °C 9,4 °C 5,0 °C 89 % 1016,8 hPa 0,0 l/m² 0 min 60 W/m² 3,2 km/h (1 Bft) 97,87 %
02.04.2026 17:08 10,8 °C 9,4 °C 5,0 °C 89 % 1016,8 hPa 0,0 l/m² 0 min 63 W/m² 3,2 km/h (1 Bft) 100,00 %
02.04.2026 17:10 10,8 °C 9,4 °C 5,0 °C 89 % 1016,8 hPa 0,0 l/m² 0 min 45 W/m² 0,0 km/h (0 Bft) 97,87 %
02.04.2026 17:12 10,8 °C 9,4 °C 5,0 °C 90 % 1016,8 hPa 0,0 l/m² 0 min 35 W/m² 6,4 km/h (2 Bft) 100,00 %
02.04.2026 17:14 10,7 °C 9,4 °C 5,0 °C 90 % 1016,7 hPa 0,0 l/m² 0 min 29 W/m² 0,0 km/h (0 Bft) 100,00 %
02.04.2026 17:16 10,7 °C 9,4 °C 5,0 °C 90 % 1016,7 hPa 0,0 l/m² 0 min 30 W/m² 0,0 km/h (0 Bft) 97,87 %
02.04.2026 17:18 10,7 °C 9,4 °C 5,0 °C 90 % 1016,7 hPa 0,0 l/m² 0 min 35 W/m² 0,0 km/h (0 Bft) 100,00 %
02.04.2026 17:20 10,7 °C 9,4 °C 5,0 °C 90 % 1016,6 hPa 0,0 l/m² 0 min 37 W/m² 0,0 km/h (0 Bft) 94,74 %
02.04.2026 17:22 10,7 °C 9,4 °C 5,6 °C 90 % 1016,7 hPa 0,0 l/m² 0 min 35 W/m² 0,0 km/h (0 Bft) 96,23 %
02.04.2026 17:24 10,7 °C 9,4 °C 5,0 °C 90 % 1016,6 hPa 0,0 l/m² 0 min 32 W/m² 0,0 km/h (0 Bft) 98,00 %
02.04.2026 17:26 10,7 °C 9,4 °C 5,0 °C 91 % 1016,6 hPa 0,0 l/m² 0 min 28 W/m² 0,0 km/h (0 Bft) 94,74 %
02.04.2026 17:28 10,6 °C 9,4 °C 5,6 °C 91 % 1016,6 hPa 0,0 l/m² 0 min 33 W/m² 0,0 km/h (0 Bft) 98,00 %
02.04.2026 17:30 10,6 °C 9,4 °C 5,0 °C 91 % 1016,6 hPa 0,0 l/m² 0 min 39 W/m² 0,0 km/h (0 Bft) 98,15 %
02.04.2026 17:32 10,6 °C 9,4 °C 5,0 °C 91 % 1016,7 hPa 0,0 l/m² 0 min 38 W/m² 3,2 km/h (1 Bft) 95,74 %
02.04.2026 17:34 10,6 °C 9,4 °C 5,0 °C 91 % 1016,7 hPa 0,0 l/m² 0 min 32 W/m² 0,0 km/h (0 Bft) 95,74 %
02.04.2026 17:36 10,5 °C 9,4 °C 5,0 °C 91 % 1016,7 hPa 0,0 l/m² 0 min 29 W/m² 0,0 km/h (0 Bft) 95,74 %
02.04.2026 17:38 10,5 °C 9,4 °C 5,0 °C 91 % 1016,7 hPa 0,0 l/m² 0 min 29 W/m² 0,0 km/h (0 Bft) 94,29 %
02.04.2026 17:40 10,4 °C 9,4 °C 5,0 °C 91 % 1016,7 hPa 0,0 l/m² 0 min 24 W/m² 0,0 km/h (0 Bft) 96,61 %
02.04.2026 17:42 10,4 °C 9,4 °C 5,0 °C 91 % 1016,7 hPa 0,0 l/m² 0 min 17 W/m² 0,0 km/h (0 Bft) 91,43 %
02.04.2026 17:44 10,4 °C 9,4 °C 5,0 °C 92 % 1016,8 hPa 0,0 l/m² 0 min 14 W/m² 6,4 km/h (2 Bft) 91,49 %
02.04.2026 17:46 10,4 °C 9,4 °C 5,0 °C 92 % 1016,8 hPa 0,2 l/m² 0 min 11 W/m² 6,4 km/h (2 Bft) 95,74 %
02.04.2026 17:48 10,4 °C 9,4 °C 5,0 °C 92 % 1016,8 hPa 0,0 l/m² 0 min 7 W/m² 3,2 km/h (1 Bft) 92,00 %
02.04.2026 17:50 10,4 °C 9,4 °C 5,0 °C 92 % 1016,9 hPa 0,0 l/m² 0 min 9 W/m² 9,7 km/h (2 Bft) 93,62 %
02.04.2026 17:52 10,3 °C 8,9 °C 5,0 °C 92 % 1016,9 hPa 0,0 l/m² 0 min 10 W/m² 6,4 km/h (2 Bft) 100,00 %
02.04.2026 17:54 10,3 °C 8,9 °C 5,0 °C 92 % 1016,9 hPa 0,0 l/m² 0 min 12 W/m² 19,3 km/h (3 Bft) 96,72 %
02.04.2026 17:56 10,2 °C 8,9 °C 5,0 °C 92 % 1016,9 hPa 0,0 l/m² 0 min 18 W/m² 22,5 km/h (4 Bft) 98,00 %
02.04.2026 17:58 10,2 °C 8,9 °C 5,0 °C 92 % 1017,0 hPa 0,0 l/m² 0 min 24 W/m² 16,1 km/h (3 Bft) 97,87 %
02.04.2026 18:00 10,1 °C 8,9 °C 5,0 °C 93 % 1017,0 hPa 0,0 l/m² 0 min 33 W/m² 22,5 km/h (4 Bft) 97,37 %
02.04.2026 18:02 10,1 °C 8,9 °C 5,0 °C 93 % 1017,0 hPa 0,0 l/m² 0 min 42 W/m² 22,5 km/h (4 Bft) 97,87 %
02.04.2026 18:04 10,0 °C 8,9 °C 5,0 °C 93 % 1017,0 hPa 0,2 l/m² 0 min 50 W/m² 16,1 km/h (3 Bft) 95,74 %
02.04.2026 18:06 9,9 °C 8,9 °C 5,0 °C 93 % 1017,0 hPa 0,0 l/m² 0 min 57 W/m² 16,1 km/h (3 Bft) 97,96 %
02.04.2026 18:08 9,9 °C 8,9 °C 5,0 °C 93 % 1017,0 hPa 0,0 l/m² 0 min 62 W/m² 19,3 km/h (3 Bft) 96,00 %
02.04.2026 18:10 9,8 °C 8,9 °C 4,4 °C 93 % 1017,0 hPa 0,0 l/m² 0 min 56 W/m² 22,5 km/h (4 Bft) 97,87 %
02.04.2026 18:12 9,8 °C 8,9 °C 4,4 °C 93 % 1017,0 hPa 0,0 l/m² 0 min 45 W/m² 22,5 km/h (4 Bft) 95,74 %
02.04.2026 18:14 9,7 °C 8,9 °C 4,4 °C 93 % 1017,1 hPa 0,0 l/m² 0 min 40 W/m² 12,9 km/h (3 Bft) 97,73 %
02.04.2026 18:16 9,7 °C 8,9 °C 4,4 °C 93 % 1017,1 hPa 0,0 l/m² 0 min 42 W/m² 6,4 km/h (2 Bft) 97,87 %
02.04.2026 18:18 9,6 °C 8,9 °C 4,4 °C 93 % 1017,1 hPa 0,0 l/m² 0 min 40 W/m² 9,7 km/h (2 Bft) 97,87 %
02.04.2026 18:20 9,6 °C 8,9 °C 4,4 °C 93 % 1017,1 hPa 0,0 l/m² 0 min 36 W/m² 12,9 km/h (3 Bft) 96,00 %
02.04.2026 18:22 9,6 °C 8,9 °C 4,4 °C 93 % 1017,1 hPa 0,0 l/m² 0 min 29 W/m² 16,1 km/h (3 Bft) 95,74 %
02.04.2026 18:24 9,6 °C 8,9 °C 4,4 °C 94 % 1017,1 hPa 0,0 l/m² 0 min 24 W/m² 12,9 km/h (3 Bft) 93,75 %
02.04.2026 18:26 9,6 °C 8,9 °C 4,4 °C 94 % 1017,1 hPa 0,0 l/m² 0 min 21 W/m² 9,7 km/h (2 Bft) 97,87 %
02.04.2026 18:28 9,5 °C 8,3 °C 4,4 °C 94 % 1017,2 hPa 0,0 l/m² 0 min 19 W/m² 19,3 km/h (3 Bft) 95,74 %
02.04.2026 18:30 9,4 °C 8,3 °C 4,4 °C 94 % 1017,2 hPa 0,0 l/m² 0 min 18 W/m² 19,3 km/h (3 Bft) 97,87 %
02.04.2026 18:32 9,4 °C 8,3 °C 4,4 °C 94 % 1017,2 hPa 0,0 l/m² 0 min 16 W/m² 12,9 km/h (3 Bft) 97,87 %
02.04.2026 18:34 9,4 °C 8,3 °C 4,4 °C 94 % 1017,2 hPa 0,0 l/m² 0 min 17 W/m² 16,1 km/h (3 Bft) 97,87 %
02.04.2026 18:36 9,4 °C 8,3 °C 4,4 °C 94 % 1017,1 hPa 0,0 l/m² 0 min 18 W/m² 22,5 km/h (4 Bft) 97,87 %
02.04.2026 18:38 9,3 °C 8,3 °C 4,4 °C 94 % 1017,2 hPa 0,0 l/m² 0 min 13 W/m² 12,9 km/h (3 Bft) 97,62 %
02.04.2026 18:40 9,3 °C 8,3 °C 4,4 °C 94 % 1017,3 hPa 0,0 l/m² 0 min 10 W/m² 9,7 km/h (2 Bft) 98,11 %
02.04.2026 18:42 9,3 °C 8,3 °C 4,4 °C 94 % 1017,3 hPa 0,0 l/m² 0 min 6 W/m² 16,1 km/h (3 Bft) 97,37 %
02.04.2026 18:44 9,3 °C 8,3 °C 4,4 °C 94 % 1017,3 hPa 0,0 l/m² 0 min 5 W/m² 9,7 km/h (2 Bft) 97,87 %
02.04.2026 18:46 9,3 °C 8,3 °C 4,4 °C 94 % 1017,3 hPa 0,0 l/m² 0 min 6 W/m² 6,4 km/h (2 Bft) 97,87 %
02.04.2026 18:48 9,3 °C 8,3 °C 4,4 °C 94 % 1017,3 hPa 0,0 l/m² 0 min 10 W/m² 12,9 km/h (3 Bft) 97,87 %
02.04.2026 18:50 9,3 °C 8,3 °C 4,4 °C 94 % 1017,4 hPa 0,0 l/m² 0 min 12 W/m² 19,3 km/h (3 Bft) 98,00 %
02.04.2026 18:52 9,3 °C 8,3 °C 4,4 °C 94 % 1017,4 hPa 0,0 l/m² 0 min 14 W/m² 12,9 km/h (3 Bft) 95,65 %
02.04.2026 18:54 9,2 °C 8,3 °C 4,4 °C 94 % 1017,4 hPa 0,0 l/m² 0 min 13 W/m² 9,7 km/h (2 Bft) 97,87 %
02.04.2026 18:56 9,2 °C 8,3 °C 4,4 °C 94 % 1017,4 hPa 0,0 l/m² 0 min 15 W/m² 25,7 km/h (4 Bft) 94,00 %
02.04.2026 18:58 9,2 °C 8,3 °C 4,4 °C 94 % 1017,5 hPa 0,0 l/m² 0 min 17 W/m² 19,3 km/h (3 Bft) 100,00 %
02.04.2026 19:00 9,1 °C 8,3 °C 3,9 °C 94 % 1017,5 hPa 0,0 l/m² 0 min 20 W/m² 16,1 km/h (3 Bft) 94,23 %
02.04.2026 19:02 9,1 °C 8,3 °C 3,9 °C 94 % 1017,4 hPa 0,0 l/m² 0 min 22 W/m² 12,9 km/h (3 Bft) 97,87 %
02.04.2026 19:04 9,1 °C 8,3 °C 4,4 °C 94 % 1017,5 hPa 0,0 l/m² 0 min 25 W/m² 16,1 km/h (3 Bft) 100,00 %
02.04.2026 19:06 9,0 °C 8,3 °C 3,9 °C 95 % 1017,5 hPa 0,0 l/m² 0 min 27 W/m² 22,5 km/h (4 Bft) 52,38 %
02.04.2026 19:08 9,0 °C 8,3 °C 3,9 °C 95 % 1017,5 hPa 0,0 l/m² 0 min 35 W/m² 16,1 km/h (3 Bft) 98,00 %
02.04.2026 19:10 8,9 °C 8,3 °C 3,9 °C 94 % 1017,5 hPa 0,0 l/m² 0 min 40 W/m² 9,7 km/h (2 Bft) 98,00 %
02.04.2026 19:12 8,9 °C 8,3 °C 3,9 °C 94 % 1017,5 hPa 0,0 l/m² 0 min 41 W/m² 12,9 km/h (3 Bft) 97,14 %
02.04.2026 19:14 8,9 °C 8,3 °C 3,9 °C 94 % 1017,6 hPa 0,0 l/m² 0 min 40 W/m² 16,1 km/h (3 Bft) 98,11 %
02.04.2026 19:16 8,9 °C 8,3 °C 4,4 °C 94 % 1017,6 hPa 0,0 l/m² 0 min 40 W/m² 6,4 km/h (2 Bft) 96,00 %
02.04.2026 19:18 8,9 °C 8,3 °C 4,4 °C 95 % 1017,6 hPa 0,0 l/m² 0 min 36 W/m² 9,7 km/h (2 Bft) 95,74 %
02.04.2026 19:20 8,9 °C 8,3 °C 4,4 °C 95 % 1017,6 hPa 0,0 l/m² 0 min 32 W/m² 9,7 km/h (2 Bft) 100,00 %
02.04.2026 19:22 8,9 °C 8,3 °C 4,4 °C 95 % 1017,6 hPa 0,0 l/m² 0 min 32 W/m² 6,4 km/h (2 Bft) 97,87 %
02.04.2026 19:24 8,9 °C 8,3 °C 4,4 °C 95 % 1017,6 hPa 0,0 l/m² 0 min 30 W/m² 12,9 km/h (3 Bft) 94,00 %
02.04.2026 19:26 8,9 °C 8,3 °C 4,4 °C 95 % 1017,7 hPa 0,0 l/m² 0 min 26 W/m² 9,7 km/h (2 Bft) 95,74 %
02.04.2026 19:28 8,9 °C 8,3 °C 4,4 °C 95 % 1017,8 hPa 0,0 l/m² 0 min 23 W/m² 9,7 km/h (2 Bft) 98,00 %
02.04.2026 19:30 8,9 °C 8,3 °C 3,9 °C 95 % 1017,8 hPa 0,0 l/m² 0 min 23 W/m² 6,4 km/h (2 Bft) 94,74 %
02.04.2026 19:32 8,9 °C 8,3 °C 3,9 °C 95 % 1017,8 hPa 0,0 l/m² 0 min 23 W/m² 9,7 km/h (2 Bft) 97,87 %
02.04.2026 19:34 8,9 °C 8,3 °C 3,9 °C 95 % 1017,7 hPa 0,0 l/m² 0 min 23 W/m² 12,9 km/h (3 Bft) 100,00 %
02.04.2026 19:36 8,9 °C 8,3 °C 3,9 °C 95 % 1017,8 hPa 0,0 l/m² 0 min 22 W/m² 6,4 km/h (2 Bft) 100,00 %
02.04.2026 19:38 8,8 °C 8,3 °C 3,9 °C 95 % 1017,7 hPa 0,0 l/m² 0 min 20 W/m² 6,4 km/h (2 Bft) 100,00 %
02.04.2026 19:40 8,8 °C 8,3 °C 3,9 °C 95 % 1017,8 hPa 0,0 l/m² 0 min 19 W/m² 6,4 km/h (2 Bft) 100,00 %
02.04.2026 19:42 8,8 °C 8,3 °C 3,9 °C 95 % 1017,8 hPa 0,0 l/m² 0 min 19 W/m² 3,2 km/h (1 Bft) 100,00 %
02.04.2026 19:44 8,8 °C 8,3 °C 3,9 °C 95 % 1017,8 hPa 0,0 l/m² 0 min 20 W/m² 9,7 km/h (2 Bft) 97,87 %
02.04.2026 19:46 8,8 °C 8,3 °C 3,9 °C 95 % 1017,8 hPa 0,0 l/m² 0 min 17 W/m² 12,9 km/h (3 Bft) 100,00 %
02.04.2026 19:48 8,8 °C 8,3 °C 3,9 °C 95 % 1017,9 hPa 0,0 l/m² 0 min 13 W/m² 6,4 km/h (2 Bft) 100,00 %
02.04.2026 19:50 8,8 °C 8,3 °C 3,9 °C 95 % 1017,9 hPa 0,0 l/m² 0 min 9 W/m² 3,2 km/h (1 Bft) 100,00 %
02.04.2026 19:52 8,8 °C 8,3 °C 3,9 °C 95 % 1017,9 hPa 0,0 l/m² 0 min 5 W/m² 6,4 km/h (2 Bft) 100,00 %
02.04.2026 19:54 8,8 °C 8,3 °C 3,9 °C 95 % 1017,9 hPa 0,0 l/m² 0 min 0 W/m² 3,2 km/h (1 Bft) 100,00 %
02.04.2026 19:56 8,8 °C 8,3 °C 3,9 °C 95 % 1018,0 hPa 0,0 l/m² 0 min 0 W/m² 6,4 km/h (2 Bft) 100,00 %
02.04.2026 19:58 8,8 °C 8,3 °C 4,4 °C 95 % 1018,0 hPa 0,0 l/m² 0 min 0 W/m² 3,2 km/h (1 Bft) 100,00 %
02.04.2026 20:00 8,8 °C 8,3 °C 4,4 °C 95 % 1018,0 hPa 0,0 l/m² 0 min 0 W/m² 6,4 km/h (2 Bft) 100,00 %
02.04.2026 20:02 8,8 °C 8,3 °C 3,9 °C 95 % 1018,0 hPa 0,0 l/m² 0 min 0 W/m² 3,2 km/h (1 Bft) 98,00 %
02.04.2026 20:04 8,8 °C 7,8 °C 3,9 °C 95 % 1018,0 hPa 0,0 l/m² 0 min 0 W/m² 16,1 km/h (3 Bft) 100,00 %
02.04.2026 20:06 8,8 °C 7,8 °C 3,9 °C 95 % 1018,2 hPa 0,0 l/m² 0 min 0 W/m² 22,5 km/h (4 Bft) 100,00 %
02.04.2026 20:08 8,8 °C 7,8 °C 3,9 °C 95 % 1018,2 hPa 0,0 l/m² 0 min 0 W/m² 19,3 km/h (3 Bft) 98,11 %
02.04.2026 20:10 8,7 °C 7,8 °C 3,9 °C 95 % 1018,2 hPa 0,0 l/m² 0 min 0 W/m² 12,9 km/h (3 Bft) 100,00 %
02.04.2026 20:12 8,6 °C 7,8 °C 3,3 °C 95 % 1018,3 hPa 0,2 l/m² 0 min 0 W/m² 9,7 km/h (2 Bft) 100,00 %
02.04.2026 20:14 8,6 °C 7,8 °C 3,3 °C 95 % 1018,4 hPa 0,0 l/m² 0 min 0 W/m² 12,9 km/h (3 Bft) 100,00 %
02.04.2026 20:16 8,5 °C 7,8 °C 3,3 °C 95 % 1018,4 hPa 0,0 l/m² 0 min 0 W/m² 9,7 km/h (2 Bft) 100,00 %
02.04.2026 20:18 8,5 °C 7,8 °C 3,3 °C 95 % 1018,5 hPa 0,0 l/m² 0 min 0 W/m² 12,9 km/h (3 Bft) 100,00 %
02.04.2026 20:20 8,4 °C 7,2 °C 3,3 °C 95 % 1018,5 hPa 0,0 l/m² 0 min 0 W/m² 12,9 km/h (3 Bft) 97,87 %
02.04.2026 20:22 8,4 °C 7,2 °C 3,3 °C 95 % 1018,5 hPa 0,0 l/m² 0 min 0 W/m² 9,7 km/h (2 Bft) 100,00 %
02.04.2026 20:24 8,3 °C 7,2 °C 3,3 °C 95 % 1018,4 hPa 0,0 l/m² 0 min 0 W/m² 6,4 km/h (2 Bft) 98,00 %
02.04.2026 20:26 8,3 °C 7,2 °C 3,3 °C 95 % 1018,5 hPa 0,0 l/m² 0 min 0 W/m² 9,7 km/h (2 Bft) 100,00 %
02.04.2026 20:28 8,3 °C 7,2 °C 3,3 °C 95 % 1018,4 hPa 0,0 l/m² 0 min 0 W/m² 6,4 km/h (2 Bft) 100,00 %
02.04.2026 20:30 8,3 °C 7,2 °C 3,3 °C 95 % 1018,5 hPa 0,0 l/m² 0 min 0 W/m² 12,9 km/h (3 Bft) 100,00 %
02.04.2026 20:32 8,3 °C 7,2 °C 3,3 °C 95 % 1018,5 hPa 0,0 l/m² 0 min 0 W/m² 6,4 km/h (2 Bft) 100,00 %
02.04.2026 20:34 8,2 °C 7,2 °C 3,3 °C 95 % 1018,5 hPa 0,0 l/m² 0 min 0 W/m² 9,7 km/h (2 Bft) 100,00 %
02.04.2026 20:36 8,2 °C 7,2 °C 3,3 °C 95 % 1018,6 hPa 0,0 l/m² 0 min 0 W/m² 12,9 km/h (3 Bft) 100,00 %
02.04.2026 20:38 8,2 °C 7,2 °C 3,3 °C 95 % 1018,6 hPa 0,0 l/m² 0 min 0 W/m² 9,7 km/h (2 Bft) 100,00 %
02.04.2026 20:40 8,2 °C 7,2 °C 3,3 °C 95 % 1018,6 hPa 0,0 l/m² 0 min 0 W/m² 9,7 km/h (2 Bft) 97,87 %
02.04.2026 20:42 8,2 °C 7,2 °C 3,3 °C 95 % 1018,6 hPa 0,0 l/m² 0 min 0 W/m² 6,4 km/h (2 Bft) 100,00 %
02.04.2026 20:44 8,1 °C 7,2 °C 3,3 °C 95 % 1018,7 hPa 0,0 l/m² 0 min 0 W/m² 6,4 km/h (2 Bft) 100,00 %
02.04.2026 20:46 8,1 °C 7,2 °C 3,3 °C 95 % 1018,7 hPa 0,0 l/m² 0 min 0 W/m² 12,9 km/h (3 Bft) 100,00 %
02.04.2026 20:48 8,1 °C 7,2 °C 3,3 °C 95 % 1018,7 hPa 0,0 l/m² 0 min 0 W/m² 12,9 km/h (3 Bft) 97,87 %
02.04.2026 20:50 8,0 °C 7,2 °C 2,8 °C 95 % 1018,8 hPa 0,0 l/m² 0 min 0 W/m² 12,9 km/h (3 Bft) 92,00 %
02.04.2026 20:52 7,9 °C 7,2 °C 2,8 °C 95 % 1018,8 hPa 0,0 l/m² 0 min 0 W/m² 25,7 km/h (4 Bft) 93,62 %
02.04.2026 20:54 7,8 °C 7,2 °C 2,8 °C 94 % 1018,8 hPa 0,0 l/m² 0 min 0 W/m² 22,5 km/h (4 Bft) 92,00 %
02.04.2026 20:56 7,8 °C 7,2 °C 2,8 °C 94 % 1018,8 hPa 0,0 l/m² 0 min 0 W/m² 16,1 km/h (3 Bft) 93,62 %
02.04.2026 20:58 7,7 °C 7,2 °C 2,8 °C 94 % 1018,9 hPa 0,0 l/m² 0 min 0 W/m² 16,1 km/h (3 Bft) 93,62 %
02.04.2026 21:00 7,7 °C 7,2 °C 2,8 °C 94 % 1019,0 hPa 0,0 l/m² 0 min 0 W/m² 16,1 km/h (3 Bft) 91,49 %
02.04.2026 21:02 7,6 °C 7,2 °C 2,8 °C 94 % 1019,0 hPa 0,0 l/m² 0 min 0 W/m² 16,1 km/h (3 Bft) 93,62 %
02.04.2026 21:04 7,6 °C 7,2 °C 2,8 °C 94 % 1019,0 hPa 0,0 l/m² 0 min 0 W/m² 19,3 km/h (3 Bft) 92,11 %
02.04.2026 21:06 7,5 °C 7,2 °C 2,2 °C 94 % 1019,0 hPa 0,0 l/m² 0 min 0 W/m² 22,5 km/h (4 Bft) 94,00 %
02.04.2026 21:08 7,4 °C 6,7 °C 2,8 °C 94 % 1019,1 hPa 0,0 l/m² 0 min 0 W/m² 12,9 km/h (3 Bft) 91,49 %
02.04.2026 21:10 7,4 °C 6,7 °C 2,2 °C 94 % 1019,0 hPa 0,0 l/m² 0 min 0 W/m² 16,1 km/h (3 Bft) 93,62 %
02.04.2026 21:12 7,4 °C 6,7 °C 2,8 °C 94 % 1019,0 hPa 0,0 l/m² 0 min 0 W/m² 6,4 km/h (2 Bft) 93,62 %
02.04.2026 21:14 7,4 °C 6,7 °C 2,8 °C 94 % 1019,0 hPa 0,0 l/m² 0 min 0 W/m² 9,7 km/h (2 Bft) 89,80 %
02.04.2026 21:16 7,4 °C 6,7 °C 2,8 °C 94 % 1019,1 hPa 0,0 l/m² 0 min 0 W/m² 3,2 km/h (1 Bft) 94,87 %
02.04.2026 21:18 7,4 °C 6,7 °C 2,8 °C 94 % 1019,0 hPa 0,0 l/m² 0 min 0 W/m² 9,7 km/h (2 Bft) 93,62 %
02.04.2026 21:20 7,4 °C 6,7 °C 2,2 °C 94 % 1019,0 hPa 0,0 l/m² 0 min 0 W/m² 6,4 km/h (2 Bft) 95,92 %
02.04.2026 21:22 7,3 °C 6,7 °C 2,2 °C 94 % 1019,0 hPa 0,0 l/m² 0 min 0 W/m² 12,9 km/h (3 Bft) 93,75 %
02.04.2026 21:24 7,3 °C 6,7 °C 2,2 °C 94 % 1018,9 hPa 0,0 l/m² 0 min 0 W/m² 16,1 km/h (3 Bft) 95,74 %
02.04.2026 21:26 7,3 °C 6,7 °C 2,2 °C 93 % 1018,9 hPa 0,0 l/m² 0 min 0 W/m² 16,1 km/h (3 Bft) 92,00 %
02.04.2026 21:28 7,2 °C 6,7 °C 2,2 °C 93 % 1019,0 hPa 0,0 l/m² 0 min 0 W/m² 12,9 km/h (3 Bft) 97,87 %
02.04.2026 21:30 7,2 °C 6,7 °C 2,2 °C 93 % 1019,0 hPa 0,0 l/m² 0 min 0 W/m² 9,7 km/h (2 Bft) 97,87 %
02.04.2026 21:32 7,2 °C 6,7 °C 2,2 °C 93 % 1019,0 hPa 0,0 l/m² 0 min 0 W/m² 12,9 km/h (3 Bft) 97,87 %
02.04.2026 21:34 7,2 °C 6,7 °C 2,2 °C 93 % 1019,0 hPa 0,0 l/m² 0 min 0 W/m² 9,7 km/h (2 Bft) 97,87 %
02.04.2026 21:36 7,1 °C 6,7 °C 2,2 °C 93 % 1019,0 hPa 0,0 l/m² 0 min 0 W/m² 9,7 km/h (2 Bft) 95,74 %
02.04.2026 21:38 7,1 °C 6,7 °C 2,2 °C 93 % 1019,0 hPa 0,0 l/m² 0 min 0 W/m² 6,4 km/h (2 Bft) 97,87 %
02.04.2026 21:40 7,1 °C 6,7 °C 2,2 °C 93 % 1019,0 hPa 0,0 l/m² 0 min 0 W/m² 12,9 km/h (3 Bft) 97,87 %
02.04.2026 21:42 7,1 °C 6,7 °C 2,2 °C 93 % 1019,0 hPa 0,0 l/m² 0 min 0 W/m² 3,2 km/h (1 Bft) 97,87 %
02.04.2026 21:44 7,1 °C 6,7 °C 2,8 °C 93 % 1019,1 hPa 0,0 l/m² 0 min 0 W/m² 6,4 km/h (2 Bft) 97,37 %
02.04.2026 21:46 7,1 °C 6,1 °C 2,8 °C 93 % 1019,1 hPa 0,0 l/m² 0 min 0 W/m² 12,9 km/h (3 Bft) 97,87 %
02.04.2026 21:48 7,1 °C 6,1 °C 2,8 °C 92 % 1019,1 hPa 0,0 l/m² 0 min 0 W/m² 16,1 km/h (3 Bft) 95,74 %
02.04.2026 21:50 7,0 °C 6,1 °C 2,8 °C 92 % 1019,1 hPa 0,0 l/m² 0 min 0 W/m² 6,4 km/h (2 Bft) 97,87 %
02.04.2026 21:52 7,0 °C 6,1 °C 2,8 °C 92 % 1019,1 hPa 0,0 l/m² 0 min 0 W/m² 6,4 km/h (2 Bft) 97,87 %
02.04.2026 21:54 7,0 °C 6,1 °C 2,8 °C 92 % 1019,1 hPa 0,0 l/m² 0 min 0 W/m² 9,7 km/h (2 Bft) 100,00 %
02.04.2026 21:56 7,0 °C 6,1 °C 2,8 °C 92 % 1019,1 hPa 0,0 l/m² 0 min 0 W/m² 9,7 km/h (2 Bft) 100,00 %
02.04.2026 21:58 6,9 °C 6,1 °C 2,8 °C 92 % 1019,2 hPa 0,0 l/m² 0 min 0 W/m² 9,7 km/h (2 Bft) 100,00 %
02.04.2026 22:00 6,9 °C 6,1 °C 2,8 °C 92 % 1019,2 hPa 0,0 l/m² 0 min 0 W/m² 6,4 km/h (2 Bft) 95,74 %
02.04.2026 22:02 6,9 °C 6,1 °C 2,8 °C 92 % 1019,2 hPa 0,0 l/m² 0 min 0 W/m² 6,4 km/h (2 Bft) 100,00 %
02.04.2026 22:04 6,9 °C 6,1 °C 2,8 °C 92 % 1019,2 hPa 0,0 l/m² 0 min 0 W/m² 3,2 km/h (1 Bft) 97,87 %
02.04.2026 22:06 6,9 °C 6,1 °C 2,8 °C 92 % 1019,3 hPa 0,0 l/m² 0 min 0 W/m² 3,2 km/h (1 Bft) 100,00 %
02.04.2026 22:08 6,9 °C 6,1 °C 2,8 °C 92 % 1019,3 hPa 0,0 l/m² 0 min 0 W/m² 3,2 km/h (1 Bft) 100,00 %
02.04.2026 22:10 6,9 °C 6,1 °C 2,8 °C 92 % 1019,3 hPa 0,0 l/m² 0 min 0 W/m² 6,4 km/h (2 Bft) 100,00 %
02.04.2026 22:12 6,9 °C 6,1 °C 2,8 °C 92 % 1019,3 hPa 0,0 l/m² 0 min 0 W/m² 9,7 km/h (2 Bft) 100,00 %
02.04.2026 22:14 6,9 °C 6,1 °C 2,8 °C 92 % 1019,3 hPa 0,0 l/m² 0 min 0 W/m² 3,2 km/h (1 Bft) 97,87 %
02.04.2026 22:16 6,8 °C 6,1 °C 2,8 °C 92 % 1019,2 hPa 0,0 l/m² 0 min 0 W/m² 9,7 km/h (2 Bft) 100,00 %
02.04.2026 22:18 6,8 °C 6,1 °C 2,8 °C 92 % 1019,2 hPa 0,0 l/m² 0 min 0 W/m² 3,2 km/h (1 Bft) 100,00 %
02.04.2026 22:20 6,8 °C 6,1 °C 2,2 °C 92 % 1019,2 hPa 0,0 l/m² 0 min 0 W/m² 3,2 km/h (1 Bft) 97,22 %
02.04.2026 22:22 6,8 °C 5,6 °C 2,2 °C 92 % 1019,2 hPa 0,0 l/m² 0 min 0 W/m² 6,4 km/h (2 Bft) 100,00 %
02.04.2026 22:24 6,8 °C 5,6 °C 2,2 °C 92 % 1019,2 hPa 0,0 l/m² 0 min 0 W/m² 3,2 km/h (1 Bft) 97,87 %
02.04.2026 22:26 6,8 °C 5,6 °C 2,2 °C 91 % 1019,2 hPa 0,0 l/m² 0 min 0 W/m² 3,2 km/h (1 Bft) 97,87 %
02.04.2026 22:28 6,7 °C 5,6 °C 2,2 °C 91 % 1019,2 hPa 0,0 l/m² 0 min 0 W/m² 3,2 km/h (1 Bft) 97,87 %
02.04.2026 22:30 6,7 °C 5,6 °C 2,2 °C 91 % 1019,2 hPa 0,0 l/m² 0 min 0 W/m² 6,4 km/h (2 Bft) 97,87 %
02.04.2026 22:32 6,7 °C 5,6 °C 2,2 °C 91 % 1019,3 hPa 0,0 l/m² 0 min 0 W/m² 3,2 km/h (1 Bft) 98,00 %
02.04.2026 22:34 6,6 °C 5,6 °C 2,2 °C 91 % 1019,3 hPa 0,0 l/m² 0 min 0 W/m² 3,2 km/h (1 Bft) 95,74 %
02.04.2026 22:36 6,6 °C 5,6 °C 2,2 °C 91 % 1019,3 hPa 0,0 l/m² 0 min 0 W/m² 3,2 km/h (1 Bft) 97,87 %
02.04.2026 22:38 6,5 °C 5,6 °C 2,2 °C 91 % 1019,3 hPa 0,0 l/m² 0 min 0 W/m² 9,7 km/h (2 Bft) 97,87 %
02.04.2026 22:40 6,5 °C 5,6 °C 2,2 °C 91 % 1019,3 hPa 0,0 l/m² 0 min 0 W/m² 9,7 km/h (2 Bft) 97,37 %
02.04.2026 22:42 6,5 °C 5,6 °C 1,7 °C 91 % 1019,2 hPa 0,0 l/m² 0 min 0 W/m² 12,9 km/h (3 Bft) 98,11 %
02.04.2026 22:44 6,4 °C 5,6 °C 1,7 °C 91 % 1019,2 hPa 0,0 l/m² 0 min 0 W/m² 3,2 km/h (1 Bft) 97,87 %
02.04.2026 22:46 6,4 °C 5,6 °C 1,7 °C 91 % 1019,2 hPa 0,0 l/m² 0 min 0 W/m² 9,7 km/h (2 Bft) 97,87 %
02.04.2026 22:48 6,3 °C 5,6 °C 1,7 °C 91 % 1019,2 hPa 0,0 l/m² 0 min 0 W/m² 12,9 km/h (3 Bft) 95,74 %
02.04.2026 22:50 6,3 °C 5,6 °C 1,7 °C 91 % 1019,3 hPa 0,0 l/m² 0 min 0 W/m² 6,4 km/h (2 Bft) 93,62 %
02.04.2026 22:52 6,3 °C 5,0 °C 1,7 °C 91 % 1019,3 hPa 0,0 l/m² 0 min 0 W/m² 3,2 km/h (1 Bft) 93,62 %
02.04.2026 22:54 6,3 °C 5,0 °C 1,7 °C 91 % 1019,3 hPa 0,0 l/m² 0 min 0 W/m² 6,4 km/h (2 Bft) 97,87 %
02.04.2026 22:56 6,2 °C 5,0 °C 1,7 °C 91 % 1019,3 hPa 0,0 l/m² 0 min 0 W/m² 3,2 km/h (1 Bft) 100,00 %
02.04.2026 22:58 6,2 °C 5,0 °C 1,7 °C 91 % 1019,4 hPa 0,0 l/m² 0 min 0 W/m² 3,2 km/h (1 Bft) 95,74 %
02.04.2026 23:00 6,2 °C 5,0 °C 1,7 °C 91 % 1019,4 hPa 0,0 l/m² 0 min 0 W/m² 0,0 km/h (0 Bft) 100,00 %
02.04.2026 23:02 6,2 °C 5,0 °C 1,7 °C 91 % 1019,4 hPa 0,0 l/m² 0 min 0 W/m² 3,2 km/h (1 Bft) 97,87 %
02.04.2026 23:04 6,2 °C 5,0 °C 1,7 °C 91 % 1019,3 hPa 0,0 l/m² 0 min 0 W/m² 3,2 km/h (1 Bft) 97,87 %
02.04.2026 23:06 6,1 °C 5,0 °C 1,7 °C 91 % 1019,4 hPa 0,0 l/m² 0 min 0 W/m² 0,0 km/h (0 Bft) 97,87 %
02.04.2026 23:08 6,1 °C 5,0 °C 1,7 °C 91 % 1019,4 hPa 0,0 l/m² 0 min 0 W/m² 0,0 km/h (0 Bft) 97,87 %
02.04.2026 23:10 6,1 °C 5,0 °C 1,7 °C 91 % 1019,4 hPa 0,0 l/m² 0 min 0 W/m² 0,0 km/h (0 Bft) 97,83 %
02.04.2026 23:12 6,1 °C 5,0 °C 1,7 °C 91 % 1019,4 hPa 0,0 l/m² 0 min 0 W/m² 0,0 km/h (0 Bft) 97,87 %
02.04.2026 23:14 6,1 °C 5,0 °C 1,7 °C 91 % 1019,4 hPa 0,0 l/m² 0 min 0 W/m² 0,0 km/h (0 Bft) 98,00 %
02.04.2026 23:16 6,1 °C 5,0 °C 1,7 °C 91 % 1019,4 hPa 0,0 l/m² 0 min 0 W/m² 0,0 km/h (0 Bft) 97,44 %
02.04.2026 23:18 6,1 °C 5,0 °C 1,7 °C 91 % 1019,4 hPa 0,0 l/m² 0 min 0 W/m² 0,0 km/h (0 Bft) 97,83 %
02.04.2026 23:20 6,0 °C 5,0 °C 1,7 °C 91 % 1019,3 hPa 0,0 l/m² 0 min 0 W/m² 0,0 km/h (0 Bft) 97,87 %
02.04.2026 23:22 6,0 °C 5,0 °C 1,7 °C 91 % 1019,3 hPa 0,0 l/m² 0 min 0 W/m² 0,0 km/h (0 Bft) 95,74 %
02.04.2026 23:24 5,9 °C 4,4 °C 1,7 °C 91 % 1019,3 hPa 0,0 l/m² 0 min 0 W/m² 3,2 km/h (1 Bft) 98,15 %
02.04.2026 23:26 5,9 °C 4,4 °C 1,1 °C 91 % 1019,4 hPa 0,0 l/m² 0 min 0 W/m² 0,0 km/h (0 Bft) 97,87 %
02.04.2026 23:28 5,9 °C 4,4 °C 1,1 °C 91 % 1019,4 hPa 0,0 l/m² 0 min 0 W/m² 0,0 km/h (0 Bft) 95,74 %
02.04.2026 23:30 5,9 °C 4,4 °C 1,1 °C 91 % 1019,4 hPa 0,0 l/m² 0 min 0 W/m² 0,0 km/h (0 Bft) 97,87 %
02.04.2026 23:32 5,9 °C 4,4 °C 1,1 °C 91 % 1019,4 hPa 0,0 l/m² 0 min 0 W/m² 0,0 km/h (0 Bft) 97,87 %
02.04.2026 23:34 5,9 °C 4,4 °C 1,1 °C 91 % 1019,4 hPa 0,0 l/m² 0 min 0 W/m² 3,2 km/h (1 Bft) 100,00 %
02.04.2026 23:36 5,8 °C 4,4 °C 1,1 °C 91 % 1019,4 hPa 0,0 l/m² 0 min 0 W/m² 3,2 km/h (1 Bft) 100,00 %
02.04.2026 23:38 5,8 °C 4,4 °C 1,1 °C 91 % 1019,4 hPa 0,0 l/m² 0 min 0 W/m² 0,0 km/h (0 Bft) 97,37 %
02.04.2026 23:40 5,8 °C 4,4 °C 1,1 °C 91 % 1019,4 hPa 0,0 l/m² 0 min 0 W/m² 0,0 km/h (0 Bft) 100,00 %
02.04.2026 23:42 5,8 °C 4,4 °C 1,1 °C 91 % 1019,4 hPa 0,0 l/m² 0 min 0 W/m² 0,0 km/h (0 Bft) 100,00 %
02.04.2026 23:44 5,8 °C 4,4 °C 1,1 °C 92 % 1019,4 hPa 0,0 l/m² 0 min 0 W/m² 0,0 km/h (0 Bft) 100,00 %
02.04.2026 23:46 5,8 °C 4,4 °C 1,1 °C 92 % 1019,4 hPa 0,0 l/m² 0 min 0 W/m² 0,0 km/h (0 Bft) 97,87 %
02.04.2026 23:48 5,8 °C 4,4 °C 1,1 °C 92 % 1019,4 hPa 0,0 l/m² 0 min 0 W/m² 0,0 km/h (0 Bft) 100,00 %
02.04.2026 23:50 5,7 °C 4,4 °C 1,1 °C 92 % 1019,4 hPa 0,0 l/m² 0 min 0 W/m² 0,0 km/h (0 Bft) 100,00 %
02.04.2026 23:52 5,7 °C 4,4 °C 1,1 °C 91 % 1019,3 hPa 0,0 l/m² 0 min 0 W/m² 0,0 km/h (0 Bft) 100,00 %
02.04.2026 23:54 5,7 °C 4,4 °C 1,1 °C 92 % 1019,3 hPa 0,0 l/m² 0 min 0 W/m² 0,0 km/h (0 Bft) 100,00 %
02.04.2026 23:56 5,7 °C 4,4 °C 1,1 °C 92 % 1019,2 hPa 0,0 l/m² 0 min 0 W/m² 0,0 km/h (0 Bft) 100,00 %
02.04.2026 23:58 5,7 °C 4,4 °C 1,1 °C 92 % 1019,3 hPa 0,0 l/m² 0 min 0 W/m² 3,2 km/h (1 Bft) 100,00 %
_ Min-Zeit 07:16 05:18 06:52 00:00 17:20 - - - 02:10 05:06
Minimum _ 2,2 °C 1,7 °C -1,7 °C 73 % 1016,6 hPa - - - 0,0 km/h (0 Bft) 38,46 %
_ Max-Zeit 15:46 14:55 15:10 19:06 00:02 16:38 07:52 09:26 18:56 00:00
Maximum _ 11,6 °C 12,8 °C 8,3 °C 95 % 1020,8 hPa 0,2 l/m² 2 min 419 W/m² 25,7 km/h
N-NW (4 Bft)
100,00 %
Durchschnitt _ 7,0 °C 6,5 °C 2,8 °C 86 % 1018,2 hPa #1,7 l/m² #42 min. 104 W/m² 7,7 km/h (2 Bft) 97,39 %
© 2026 W. Hausmann